<?xml version="1.0" encoding="UTF-8" standalone="no" ?>
<gpx xmlns="http://www.topografix.com/GPX/1/1" xmlns:xsi="http://www.w3.org/2001/XMLSchema-instance" xsi:schemaLocation="http://www.topografix.com/GPX/1/1 http://www.topografix.com/GPX/1/1/gpx.xsd" version="1.1" creator="VisuGPX - https://www.visugpx.com">
  <metadata>
    <name>Pas de Serre Brion, pas de Berrièves</name>
    <desc><![CDATA[au départ de Bourgmenu. ]]></desc>
  </metadata>
  <trk>
    <name><![CDATA[Tour Pas de Serre Brion , Pas de Bérrièves]]></name>
    <trkseg>
      <trkpt lat="44.95259" lon="5.54645">
        <ele>1021.799987793</ele>
        <time>2014-08-24T06:51:04Z</time>
      </trkpt>
      <trkpt lat="44.95277" lon="5.54653">
        <ele>1022.200012207</ele>
        <time>2014-08-24T06:51:28Z</time>
      </trkpt>
      <trkpt lat="44.95294" lon="5.54642">
        <ele>1025.800048828</ele>
        <time>2014-08-24T06:51:47Z</time>
      </trkpt>
      <trkpt lat="44.95312" lon="5.54623">
        <ele>1028.400024414</ele>
        <time>2014-08-24T06:52:06Z</time>
      </trkpt>
      <trkpt lat="44.95324" lon="5.54603">
        <ele>1030.800048828</ele>
        <time>2014-08-24T06:52:24Z</time>
      </trkpt>
      <trkpt lat="44.95331" lon="5.5457">
        <ele>1035.800048828</ele>
        <time>2014-08-24T06:52:45Z</time>
      </trkpt>
      <trkpt lat="44.95334" lon="5.54545">
        <ele>1040.400024414</ele>
        <time>2014-08-24T06:53:07Z</time>
      </trkpt>
      <trkpt lat="44.95332" lon="5.54515">
        <ele>1045</ele>
        <time>2014-08-24T06:53:34Z</time>
      </trkpt>
      <trkpt lat="44.95335" lon="5.54487">
        <ele>1049.400024414</ele>
        <time>2014-08-24T06:54:07Z</time>
      </trkpt>
      <trkpt lat="44.95335" lon="5.54456">
        <ele>1054.400024414</ele>
        <time>2014-08-24T06:54:34Z</time>
      </trkpt>
      <trkpt lat="44.95333" lon="5.5443">
        <ele>1059.800048828</ele>
        <time>2014-08-24T06:54:58Z</time>
      </trkpt>
      <trkpt lat="44.9534" lon="5.54405">
        <ele>1065</ele>
        <time>2014-08-24T06:55:24Z</time>
      </trkpt>
      <trkpt lat="44.95349" lon="5.54378">
        <ele>1071.199951172</ele>
        <time>2014-08-24T06:55:41Z</time>
      </trkpt>
      <trkpt lat="44.95354" lon="5.54351">
        <ele>1076.800048828</ele>
        <time>2014-08-24T06:56:03Z</time>
      </trkpt>
      <trkpt lat="44.95356" lon="5.54323">
        <ele>1081.800048828</ele>
        <time>2014-08-24T06:56:24Z</time>
      </trkpt>
      <trkpt lat="44.95348" lon="5.54299">
        <ele>1086.199951172</ele>
        <time>2014-08-24T06:56:46Z</time>
      </trkpt>
      <trkpt lat="44.95339" lon="5.54265">
        <ele>1093.199951172</ele>
        <time>2014-08-24T06:57:08Z</time>
      </trkpt>
      <trkpt lat="44.95341" lon="5.54237">
        <ele>1098</ele>
        <time>2014-08-24T06:57:30Z</time>
      </trkpt>
      <trkpt lat="44.95343" lon="5.54207">
        <ele>1103.400024414</ele>
        <time>2014-08-24T06:57:53Z</time>
      </trkpt>
      <trkpt lat="44.95353" lon="5.54185">
        <ele>1108.199951172</ele>
        <time>2014-08-24T06:58:17Z</time>
      </trkpt>
      <trkpt lat="44.95355" lon="5.54158">
        <ele>1114.599975586</ele>
        <time>2014-08-24T06:58:49Z</time>
      </trkpt>
      <trkpt lat="44.95351" lon="5.54125">
        <ele>1123.199951172</ele>
        <time>2014-08-24T06:59:16Z</time>
      </trkpt>
      <trkpt lat="44.95341" lon="5.54098">
        <ele>1130.800048828</ele>
        <time>2014-08-24T06:59:39Z</time>
      </trkpt>
      <trkpt lat="44.95338" lon="5.54067">
        <ele>1137.599975586</ele>
        <time>2014-08-24T06:59:58Z</time>
      </trkpt>
      <trkpt lat="44.95335" lon="5.54041">
        <ele>1143.199951172</ele>
        <time>2014-08-24T07:00:10Z</time>
      </trkpt>
      <trkpt lat="44.95327" lon="5.54018">
        <ele>1149</ele>
        <time>2014-08-24T07:00:28Z</time>
      </trkpt>
      <trkpt lat="44.95315" lon="5.54">
        <ele>1154.400024414</ele>
        <time>2014-08-24T07:00:47Z</time>
      </trkpt>
      <trkpt lat="44.9531" lon="5.5397">
        <ele>1161.400024414</ele>
        <time>2014-08-24T07:01:23Z</time>
      </trkpt>
      <trkpt lat="44.95303" lon="5.53939">
        <ele>1167.400024414</ele>
        <time>2014-08-24T07:01:46Z</time>
      </trkpt>
      <trkpt lat="44.95289" lon="5.53921">
        <ele>1171.400024414</ele>
        <time>2014-08-24T07:02:08Z</time>
      </trkpt>
      <trkpt lat="44.95276" lon="5.53902">
        <ele>1177.199951172</ele>
        <time>2014-08-24T07:02:30Z</time>
      </trkpt>
      <trkpt lat="44.95262" lon="5.53877">
        <ele>1183.599975586</ele>
        <time>2014-08-24T07:02:50Z</time>
      </trkpt>
      <trkpt lat="44.95251" lon="5.53854">
        <ele>1188.400024414</ele>
        <time>2014-08-24T07:03:06Z</time>
      </trkpt>
      <trkpt lat="44.95247" lon="5.53825">
        <ele>1193.199951172</ele>
        <time>2014-08-24T07:03:26Z</time>
      </trkpt>
      <trkpt lat="44.9525" lon="5.53797">
        <ele>1196.800048828</ele>
        <time>2014-08-24T07:03:48Z</time>
      </trkpt>
      <trkpt lat="44.95241" lon="5.53769">
        <ele>1201.599975586</ele>
        <time>2014-08-24T07:04:15Z</time>
      </trkpt>
      <trkpt lat="44.95228" lon="5.53742">
        <ele>1206.800048828</ele>
        <time>2014-08-24T07:04:33Z</time>
      </trkpt>
      <trkpt lat="44.95217" lon="5.53714">
        <ele>1213</ele>
        <time>2014-08-24T07:04:54Z</time>
      </trkpt>
      <trkpt lat="44.95204" lon="5.53687">
        <ele>1220.800048828</ele>
        <time>2014-08-24T07:05:14Z</time>
      </trkpt>
      <trkpt lat="44.95186" lon="5.53686">
        <ele>1227.599975586</ele>
        <time>2014-08-24T07:05:34Z</time>
      </trkpt>
      <trkpt lat="44.95168" lon="5.53689">
        <ele>1231.800048828</ele>
        <time>2014-08-24T07:05:49Z</time>
      </trkpt>
      <trkpt lat="44.95147" lon="5.537">
        <ele>1232.400024414</ele>
        <time>2014-08-24T07:06:11Z</time>
      </trkpt>
      <trkpt lat="44.95126" lon="5.53707">
        <ele>1234.199951172</ele>
        <time>2014-08-24T07:06:23Z</time>
      </trkpt>
      <trkpt lat="44.95108" lon="5.53713">
        <ele>1235.400024414</ele>
        <time>2014-08-24T07:06:39Z</time>
      </trkpt>
      <trkpt lat="44.95089" lon="5.53714">
        <ele>1239.599975586</ele>
        <time>2014-08-24T07:06:56Z</time>
      </trkpt>
      <trkpt lat="44.9507" lon="5.53711">
        <ele>1244.199951172</ele>
        <time>2014-08-24T07:07:11Z</time>
      </trkpt>
      <trkpt lat="44.95051" lon="5.53706">
        <ele>1249.400024414</ele>
        <time>2014-08-24T07:07:28Z</time>
      </trkpt>
      <trkpt lat="44.95032" lon="5.53691">
        <ele>1253.599975586</ele>
        <time>2014-08-24T07:07:50Z</time>
      </trkpt>
      <trkpt lat="44.95018" lon="5.53667">
        <ele>1256</ele>
        <time>2014-08-24T07:08:08Z</time>
      </trkpt>
      <trkpt lat="44.95002" lon="5.53643">
        <ele>1258.199951172</ele>
        <time>2014-08-24T07:08:27Z</time>
      </trkpt>
      <trkpt lat="44.94992" lon="5.53611">
        <ele>1259.400024414</ele>
        <time>2014-08-24T07:08:47Z</time>
      </trkpt>
      <trkpt lat="44.94982" lon="5.53586">
        <ele>1258.800048828</ele>
        <time>2014-08-24T07:09:03Z</time>
      </trkpt>
      <trkpt lat="44.94972" lon="5.53562">
        <ele>1258.400024414</ele>
        <time>2014-08-24T07:09:18Z</time>
      </trkpt>
      <trkpt lat="44.94961" lon="5.53529">
        <ele>1261.199951172</ele>
        <time>2014-08-24T07:09:36Z</time>
      </trkpt>
      <trkpt lat="44.9496" lon="5.53501">
        <ele>1265.800048828</ele>
        <time>2014-08-24T07:09:55Z</time>
      </trkpt>
      <trkpt lat="44.94969" lon="5.53479">
        <ele>1271</ele>
        <time>2014-08-24T07:10:23Z</time>
      </trkpt>
      <trkpt lat="44.94976" lon="5.53455">
        <ele>1277</ele>
        <time>2014-08-24T07:10:49Z</time>
      </trkpt>
      <trkpt lat="44.94978" lon="5.53429">
        <ele>1283.400024414</ele>
        <time>2014-08-24T07:11:17Z</time>
      </trkpt>
      <trkpt lat="44.94977" lon="5.53399">
        <ele>1290.199951172</ele>
        <time>2014-08-24T07:11:43Z</time>
      </trkpt>
      <trkpt lat="44.94992" lon="5.53381">
        <ele>1296</ele>
        <time>2014-08-24T07:12:08Z</time>
      </trkpt>
      <trkpt lat="44.94999" lon="5.53355">
        <ele>1303</ele>
        <time>2014-08-24T07:12:30Z</time>
      </trkpt>
      <trkpt lat="44.95003" lon="5.53329">
        <ele>1308.400024414</ele>
        <time>2014-08-24T07:12:47Z</time>
      </trkpt>
      <trkpt lat="44.95006" lon="5.53302">
        <ele>1313</ele>
        <time>2014-08-24T07:13:06Z</time>
      </trkpt>
      <trkpt lat="44.95004" lon="5.53276">
        <ele>1319.199951172</ele>
        <time>2014-08-24T07:13:28Z</time>
      </trkpt>
      <trkpt lat="44.95004" lon="5.53245">
        <ele>1326.199951172</ele>
        <time>2014-08-24T07:13:56Z</time>
      </trkpt>
      <trkpt lat="44.95004" lon="5.5322">
        <ele>1332</ele>
        <time>2014-08-24T07:14:12Z</time>
      </trkpt>
      <trkpt lat="44.94996" lon="5.5319">
        <ele>1337.400024414</ele>
        <time>2014-08-24T07:14:32Z</time>
      </trkpt>
      <trkpt lat="44.94982" lon="5.53162">
        <ele>1341.800048828</ele>
        <time>2014-08-24T07:14:51Z</time>
      </trkpt>
      <trkpt lat="44.94975" lon="5.53136">
        <ele>1346.199951172</ele>
        <time>2014-08-24T07:15:23Z</time>
      </trkpt>
      <trkpt lat="44.94967" lon="5.53112">
        <ele>1352.199951172</ele>
        <time>2014-08-24T07:15:43Z</time>
      </trkpt>
      <trkpt lat="44.94955" lon="5.53084">
        <ele>1360.199951172</ele>
        <time>2014-08-24T07:16:19Z</time>
      </trkpt>
      <trkpt lat="44.9494" lon="5.53067">
        <ele>1368</ele>
        <time>2014-08-24T07:16:42Z</time>
      </trkpt>
      <trkpt lat="44.94928" lon="5.53044">
        <ele>1377.400024414</ele>
        <time>2014-08-24T07:17:18Z</time>
      </trkpt>
      <trkpt lat="44.94904" lon="5.53038">
        <ele>1385.199951172</ele>
        <time>2014-08-24T07:17:40Z</time>
      </trkpt>
      <trkpt lat="44.94884" lon="5.53046">
        <ele>1386</ele>
        <time>2014-08-24T07:17:52Z</time>
      </trkpt>
      <trkpt lat="44.94865" lon="5.5304">
        <ele>1391.800048828</ele>
        <time>2014-08-24T07:18:09Z</time>
      </trkpt>
      <trkpt lat="44.94855" lon="5.53016">
        <ele>1403.199951172</ele>
        <time>2014-08-24T07:18:44Z</time>
      </trkpt>
      <trkpt lat="44.9484" lon="5.52994">
        <ele>1415</ele>
        <time>2014-08-24T07:18:59Z</time>
      </trkpt>
      <trkpt lat="44.94859" lon="5.52996">
        <ele>1411</ele>
        <time>2014-08-24T07:19:22Z</time>
      </trkpt>
      <trkpt lat="44.94873" lon="5.52974">
        <ele>1417.400024414</ele>
        <time>2014-08-24T07:20:38Z</time>
      </trkpt>
      <trkpt lat="44.94865" lon="5.52951">
        <ele>1428.199951172</ele>
        <time>2014-08-24T07:21:11Z</time>
      </trkpt>
      <trkpt lat="44.94879" lon="5.52933">
        <ele>1431.800048828</ele>
        <time>2014-08-24T07:21:33Z</time>
      </trkpt>
      <trkpt lat="44.94846" lon="5.52925">
        <ele>1442.199951172</ele>
        <time>2014-08-24T07:22:09Z</time>
      </trkpt>
      <trkpt lat="44.94827" lon="5.52915">
        <ele>1450.599975586</ele>
        <time>2014-08-24T07:22:24Z</time>
      </trkpt>
      <trkpt lat="44.94846" lon="5.529">
        <ele>1451.199951172</ele>
        <time>2014-08-24T07:22:38Z</time>
      </trkpt>
      <trkpt lat="44.94854" lon="5.52877">
        <ele>1459</ele>
        <time>2014-08-24T07:23:30Z</time>
      </trkpt>
      <trkpt lat="44.94866" lon="5.52858">
        <ele>1463.800048828</ele>
        <time>2014-08-24T07:23:48Z</time>
      </trkpt>
      <trkpt lat="44.9487" lon="5.52831">
        <ele>1472.400024414</ele>
        <time>2014-08-24T07:24:33Z</time>
      </trkpt>
      <trkpt lat="44.94853" lon="5.52842">
        <ele>1475.800048828</ele>
        <time>2014-08-24T07:24:53Z</time>
      </trkpt>
      <trkpt lat="44.94861" lon="5.52815">
        <ele>1482.400024414</ele>
        <time>2014-08-24T07:25:14Z</time>
      </trkpt>
      <trkpt lat="44.94843" lon="5.52818">
        <ele>1489.599975586</ele>
        <time>2014-08-24T07:25:49Z</time>
      </trkpt>
      <trkpt lat="44.94848" lon="5.52782">
        <ele>1501.800048828</ele>
        <time>2014-08-24T07:26:26Z</time>
      </trkpt>
      <trkpt lat="44.94831" lon="5.5279">
        <ele>1506.199951172</ele>
        <time>2014-08-24T07:27:04Z</time>
      </trkpt>
      <trkpt lat="44.94831" lon="5.52764">
        <ele>1516.400024414</ele>
        <time>2014-08-24T07:27:39Z</time>
      </trkpt>
      <trkpt lat="44.94841" lon="5.52734">
        <ele>1522.800048828</ele>
        <time>2014-08-24T07:27:58Z</time>
      </trkpt>
      <trkpt lat="44.94823" lon="5.52748">
        <ele>1526.400024414</ele>
        <time>2014-08-24T07:28:23Z</time>
      </trkpt>
      <trkpt lat="44.94807" lon="5.5276">
        <ele>1529.400024414</ele>
        <time>2014-08-24T07:28:41Z</time>
      </trkpt>
      <trkpt lat="44.94814" lon="5.52731">
        <ele>1537.800048828</ele>
        <time>2014-08-24T07:29:00Z</time>
      </trkpt>
      <trkpt lat="44.94822" lon="5.52705">
        <ele>1542</ele>
        <time>2014-08-24T07:29:20Z</time>
      </trkpt>
      <trkpt lat="44.94803" lon="5.52716">
        <ele>1548.199951172</ele>
        <time>2014-08-24T07:29:49Z</time>
      </trkpt>
      <trkpt lat="44.94809" lon="5.52683">
        <ele>1555.199951172</ele>
        <time>2014-08-24T07:30:28Z</time>
      </trkpt>
      <trkpt lat="44.94792" lon="5.52695">
        <ele>1560.400024414</ele>
        <time>2014-08-24T07:30:50Z</time>
      </trkpt>
      <trkpt lat="44.94793" lon="5.52668">
        <ele>1567.400024414</ele>
        <time>2014-08-24T07:31:26Z</time>
      </trkpt>
      <trkpt lat="44.94777" lon="5.52685">
        <ele>1566.199951172</ele>
        <time>2014-08-24T07:31:48Z</time>
      </trkpt>
      <trkpt lat="44.9476" lon="5.52702">
        <ele>1563.800048828</ele>
        <time>2014-08-24T07:32:07Z</time>
      </trkpt>
      <trkpt lat="44.9474" lon="5.5271">
        <ele>1564.199951172</ele>
        <time>2014-08-24T07:32:22Z</time>
      </trkpt>
      <trkpt lat="44.94719" lon="5.5271">
        <ele>1567.400024414</ele>
        <time>2014-08-24T07:32:41Z</time>
      </trkpt>
      <trkpt lat="44.94701" lon="5.52708">
        <ele>1569.800048828</ele>
        <time>2014-08-24T07:32:56Z</time>
      </trkpt>
      <trkpt lat="44.94673" lon="5.52706">
        <ele>1570</ele>
        <time>2014-08-24T07:33:16Z</time>
      </trkpt>
      <trkpt lat="44.9465" lon="5.52704">
        <ele>1570.400024414</ele>
        <time>2014-08-24T07:33:39Z</time>
      </trkpt>
      <trkpt lat="44.94632" lon="5.52705">
        <ele>1569.800048828</ele>
        <time>2014-08-24T07:34:07Z</time>
      </trkpt>
      <trkpt lat="44.94613" lon="5.52701">
        <ele>1568.199951172</ele>
        <time>2014-08-24T07:34:23Z</time>
      </trkpt>
      <trkpt lat="44.94602" lon="5.52676">
        <ele>1573</ele>
        <time>2014-08-24T07:34:37Z</time>
      </trkpt>
      <trkpt lat="44.94591" lon="5.52653">
        <ele>1577.199951172</ele>
        <time>2014-08-24T07:34:48Z</time>
      </trkpt>
      <trkpt lat="44.94578" lon="5.5263">
        <ele>1582</ele>
        <time>2014-08-24T07:35:09Z</time>
      </trkpt>
      <trkpt lat="44.94566" lon="5.5261">
        <ele>1589.400024414</ele>
        <time>2014-08-24T07:35:30Z</time>
      </trkpt>
      <trkpt lat="44.94543" lon="5.52591">
        <ele>1594.199951172</ele>
        <time>2014-08-24T07:35:47Z</time>
      </trkpt>
      <trkpt lat="44.94526" lon="5.52577">
        <ele>1601.599975586</ele>
        <time>2014-08-24T07:36:07Z</time>
      </trkpt>
      <trkpt lat="44.94505" lon="5.52561">
        <ele>1610.400024414</ele>
        <time>2014-08-24T07:36:31Z</time>
      </trkpt>
      <trkpt lat="44.94484" lon="5.52551">
        <ele>1616.199951172</ele>
        <time>2014-08-24T07:36:51Z</time>
      </trkpt>
      <trkpt lat="44.94469" lon="5.52532">
        <ele>1622.199951172</ele>
        <time>2014-08-24T07:37:06Z</time>
      </trkpt>
      <trkpt lat="44.94446" lon="5.5252">
        <ele>1624.599975586</ele>
        <time>2014-08-24T07:37:22Z</time>
      </trkpt>
      <trkpt lat="44.94428" lon="5.5251">
        <ele>1625.400024414</ele>
        <time>2014-08-24T07:37:38Z</time>
      </trkpt>
      <trkpt lat="44.94409" lon="5.52499">
        <ele>1626.199951172</ele>
        <time>2014-08-24T07:38:00Z</time>
      </trkpt>
      <trkpt lat="44.94387" lon="5.52492">
        <ele>1624.800048828</ele>
        <time>2014-08-24T07:38:25Z</time>
      </trkpt>
      <trkpt lat="44.94369" lon="5.52484">
        <ele>1627.199951172</ele>
        <time>2014-08-24T07:38:49Z</time>
      </trkpt>
      <trkpt lat="44.9435" lon="5.52472">
        <ele>1639</ele>
        <time>2014-08-24T07:39:14Z</time>
      </trkpt>
      <trkpt lat="44.94331" lon="5.52477">
        <ele>1645.199951172</ele>
        <time>2014-08-24T07:40:26Z</time>
      </trkpt>
      <trkpt lat="44.94314" lon="5.52486">
        <ele>1648.599975586</ele>
        <time>2014-08-24T07:40:41Z</time>
      </trkpt>
      <trkpt lat="44.94323" lon="5.5246">
        <ele>1657.199951172</ele>
        <time>2014-08-24T07:41:16Z</time>
      </trkpt>
      <trkpt lat="44.94306" lon="5.52469">
        <ele>1658.400024414</ele>
        <time>2014-08-24T07:41:52Z</time>
      </trkpt>
      <trkpt lat="44.94288" lon="5.52476">
        <ele>1660</ele>
        <time>2014-08-24T07:42:12Z</time>
      </trkpt>
      <trkpt lat="44.94267" lon="5.52481">
        <ele>1657</ele>
        <time>2014-08-24T07:42:38Z</time>
      </trkpt>
      <trkpt lat="44.94248" lon="5.52487">
        <ele>1653.199951172</ele>
        <time>2014-08-24T07:42:50Z</time>
      </trkpt>
      <trkpt lat="44.9423" lon="5.52478">
        <ele>1657.800048828</ele>
        <time>2014-08-24T07:43:01Z</time>
      </trkpt>
      <trkpt lat="44.94207" lon="5.52469">
        <ele>1661.599975586</ele>
        <time>2014-08-24T07:43:31Z</time>
      </trkpt>
      <trkpt lat="44.94189" lon="5.52461">
        <ele>1662.599975586</ele>
        <time>2014-08-24T07:43:49Z</time>
      </trkpt>
      <trkpt lat="44.94171" lon="5.52439">
        <ele>1671.400024414</ele>
        <time>2014-08-24T07:44:11Z</time>
      </trkpt>
      <trkpt lat="44.94192" lon="5.52436">
        <ele>1674</ele>
        <time>2014-08-24T07:44:51Z</time>
      </trkpt>
      <trkpt lat="44.94212" lon="5.52435">
        <ele>1673.800048828</ele>
        <time>2014-08-24T07:45:18Z</time>
      </trkpt>
      <trkpt lat="44.94231" lon="5.52428">
        <ele>1676.800048828</ele>
        <time>2014-08-24T07:45:37Z</time>
      </trkpt>
      <trkpt lat="44.94251" lon="5.52425">
        <ele>1679.199951172</ele>
        <time>2014-08-24T07:45:56Z</time>
      </trkpt>
      <trkpt lat="44.9427" lon="5.52405">
        <ele>1702.800048828</ele>
        <time>2014-08-24T07:46:11Z</time>
      </trkpt>
      <trkpt lat="44.94248" lon="5.52398">
        <ele>1698.400024414</ele>
        <time>2014-08-24T07:46:34Z</time>
      </trkpt>
      <trkpt lat="44.9423" lon="5.52394">
        <ele>1693.800048828</ele>
        <time>2014-08-24T07:46:50Z</time>
      </trkpt>
      <trkpt lat="44.94211" lon="5.52388">
        <ele>1689.599975586</ele>
        <time>2014-08-24T07:47:15Z</time>
      </trkpt>
      <trkpt lat="44.94192" lon="5.5237">
        <ele>1699</ele>
        <time>2014-08-24T07:47:37Z</time>
      </trkpt>
      <trkpt lat="44.94175" lon="5.52349">
        <ele>1711.800048828</ele>
        <time>2014-08-24T07:48:01Z</time>
      </trkpt>
      <trkpt lat="44.94197" lon="5.52353">
        <ele>1718.800048828</ele>
        <time>2014-08-24T07:48:21Z</time>
      </trkpt>
      <trkpt lat="44.94178" lon="5.52335">
        <ele>1728.400024414</ele>
        <time>2014-08-24T07:49:11Z</time>
      </trkpt>
      <trkpt lat="44.94158" lon="5.52329">
        <ele>1724.599975586</ele>
        <time>2014-08-24T07:49:22Z</time>
      </trkpt>
      <trkpt lat="44.94139" lon="5.52329">
        <ele>1722.800048828</ele>
        <time>2014-08-24T07:49:34Z</time>
      </trkpt>
      <trkpt lat="44.94118" lon="5.52322">
        <ele>1725.199951172</ele>
        <time>2014-08-24T07:49:47Z</time>
      </trkpt>
      <trkpt lat="44.94104" lon="5.52305">
        <ele>1730.599975586</ele>
        <time>2014-08-24T07:50:12Z</time>
      </trkpt>
      <trkpt lat="44.94084" lon="5.52286">
        <ele>1737</ele>
        <time>2014-08-24T07:50:36Z</time>
      </trkpt>
      <trkpt lat="44.94064" lon="5.52269">
        <ele>1743</ele>
        <time>2014-08-24T07:50:50Z</time>
      </trkpt>
      <trkpt lat="44.94047" lon="5.52257">
        <ele>1746.800048828</ele>
        <time>2014-08-24T07:51:04Z</time>
      </trkpt>
      <trkpt lat="44.94043" lon="5.5223">
        <ele>1763.400024414</ele>
        <time>2014-08-24T07:52:01Z</time>
      </trkpt>
      <trkpt lat="44.94024" lon="5.52222">
        <ele>1762.599975586</ele>
        <time>2014-08-24T07:52:22Z</time>
      </trkpt>
      <trkpt lat="44.94003" lon="5.52219">
        <ele>1759.199951172</ele>
        <time>2014-08-24T07:52:37Z</time>
      </trkpt>
      <trkpt lat="44.93983" lon="5.52211">
        <ele>1760.400024414</ele>
        <time>2014-08-24T07:52:50Z</time>
      </trkpt>
      <trkpt lat="44.93966" lon="5.52195">
        <ele>1769.800048828</ele>
        <time>2014-08-24T07:53:01Z</time>
      </trkpt>
      <trkpt lat="44.93946" lon="5.52188">
        <ele>1766.400024414</ele>
        <time>2014-08-24T07:53:15Z</time>
      </trkpt>
      <trkpt lat="44.93937" lon="5.52163">
        <ele>1783.199951172</ele>
        <time>2014-08-24T07:53:34Z</time>
      </trkpt>
      <trkpt lat="44.93922" lon="5.52179">
        <ele>1758.599975586</ele>
        <time>2014-08-24T07:54:00Z</time>
      </trkpt>
      <trkpt lat="44.93901" lon="5.52178">
        <ele>1749.400024414</ele>
        <time>2014-08-24T07:54:25Z</time>
      </trkpt>
      <trkpt lat="44.93888" lon="5.52157">
        <ele>1757.599975586</ele>
        <time>2014-08-24T07:54:54Z</time>
      </trkpt>
      <trkpt lat="44.93894" lon="5.52131">
        <ele>1783.400024414</ele>
        <time>2014-08-24T07:55:11Z</time>
      </trkpt>
      <trkpt lat="44.93909" lon="5.52146">
        <ele>1780.199951172</ele>
        <time>2014-08-24T07:56:33Z</time>
      </trkpt>
      <trkpt lat="44.93908" lon="5.52118">
        <ele>1809.199951172</ele>
        <time>2014-08-24T07:57:28Z</time>
      </trkpt>
      <trkpt lat="44.93918" lon="5.52089">
        <ele>1850.199951172</ele>
        <time>2014-08-24T07:58:54Z</time>
      </trkpt>
      <trkpt lat="44.93931" lon="5.5207">
        <ele>1888</ele>
        <time>2014-08-24T07:59:23Z</time>
      </trkpt>
      <trkpt lat="44.93918" lon="5.52089">
        <ele>1849.800048828</ele>
        <time>2014-08-24T07:59:54Z</time>
      </trkpt>
      <trkpt lat="44.93902" lon="5.52072">
        <ele>1858.800048828</ele>
        <time>2014-08-24T08:00:21Z</time>
      </trkpt>
      <trkpt lat="44.93899" lon="5.52041">
        <ele>1898.599975586</ele>
        <time>2014-08-24T08:01:01Z</time>
      </trkpt>
      <trkpt lat="44.93921" lon="5.52049">
        <ele>1908.199951172</ele>
        <time>2014-08-24T08:01:53Z</time>
      </trkpt>
      <trkpt lat="44.93931" lon="5.52077">
        <ele>1878.400024414</ele>
        <time>2014-08-24T08:02:18Z</time>
      </trkpt>
      <trkpt lat="44.93912" lon="5.52066">
        <ele>1876.599975586</ele>
        <time>2014-08-24T08:03:34Z</time>
      </trkpt>
      <trkpt lat="44.93891" lon="5.52058">
        <ele>1867.599975586</ele>
        <time>2014-08-24T08:03:42Z</time>
      </trkpt>
      <trkpt lat="44.93873" lon="5.52061">
        <ele>1849.599975586</ele>
        <time>2014-08-24T08:03:50Z</time>
      </trkpt>
      <trkpt lat="44.93857" lon="5.52047">
        <ele>1866.599975586</ele>
        <time>2014-08-24T08:04:28Z</time>
      </trkpt>
      <trkpt lat="44.93833" lon="5.5205">
        <ele>1863.199951172</ele>
        <time>2014-08-24T08:04:44Z</time>
      </trkpt>
      <trkpt lat="44.93808" lon="5.52046">
        <ele>1867.599975586</ele>
        <time>2014-08-24T08:04:56Z</time>
      </trkpt>
      <trkpt lat="44.93782" lon="5.52041">
        <ele>1872.800048828</ele>
        <time>2014-08-24T08:05:11Z</time>
      </trkpt>
      <trkpt lat="44.93762" lon="5.52046">
        <ele>1866</ele>
        <time>2014-08-24T08:05:27Z</time>
      </trkpt>
      <trkpt lat="44.93743" lon="5.52052">
        <ele>1857.199951172</ele>
        <time>2014-08-24T08:05:42Z</time>
      </trkpt>
      <trkpt lat="44.93726" lon="5.5206">
        <ele>1844.800048828</ele>
        <time>2014-08-24T08:05:56Z</time>
      </trkpt>
      <trkpt lat="44.93703" lon="5.52067">
        <ele>1842.199951172</ele>
        <time>2014-08-24T08:06:17Z</time>
      </trkpt>
      <trkpt lat="44.93677" lon="5.52069">
        <ele>1842</ele>
        <time>2014-08-24T08:06:39Z</time>
      </trkpt>
      <trkpt lat="44.93663" lon="5.52086">
        <ele>1826</ele>
        <time>2014-08-24T08:07:17Z</time>
      </trkpt>
      <trkpt lat="44.93657" lon="5.52059">
        <ele>1852.800048828</ele>
        <time>2014-08-24T08:07:24Z</time>
      </trkpt>
      <trkpt lat="44.93652" lon="5.52019">
        <ele>1891.599975586</ele>
        <time>2014-08-24T08:07:28Z</time>
      </trkpt>
      <trkpt lat="44.9365" lon="5.5199">
        <ele>1920.199951172</ele>
        <time>2014-08-24T08:07:39Z</time>
      </trkpt>
      <trkpt lat="44.93659" lon="5.51964">
        <ele>1945.400024414</ele>
        <time>2014-08-24T08:08:29Z</time>
      </trkpt>
      <trkpt lat="44.93678" lon="5.51945">
        <ele>1953.800048828</ele>
        <time>2014-08-24T08:10:12Z</time>
      </trkpt>
      <trkpt lat="44.93666" lon="5.51923">
        <ele>1961.400024414</ele>
        <time>2014-08-24T08:12:16Z</time>
      </trkpt>
      <trkpt lat="44.93664" lon="5.51896">
        <ele>1962.599975586</ele>
        <time>2014-08-24T08:12:56Z</time>
      </trkpt>
      <trkpt lat="44.93654" lon="5.51869">
        <ele>1964.199951172</ele>
        <time>2014-08-24T08:14:40Z</time>
      </trkpt>
      <trkpt lat="44.93644" lon="5.51838">
        <ele>1963.800048828</ele>
        <time>2014-08-24T08:14:52Z</time>
      </trkpt>
      <trkpt lat="44.93638" lon="5.51815">
        <ele>1962.800048828</ele>
        <time>2014-08-24T08:15:02Z</time>
      </trkpt>
      <trkpt lat="44.93631" lon="5.51781">
        <ele>1956</ele>
        <time>2014-08-24T08:15:17Z</time>
      </trkpt>
      <trkpt lat="44.93624" lon="5.51756">
        <ele>1950.400024414</ele>
        <time>2014-08-24T08:15:29Z</time>
      </trkpt>
      <trkpt lat="44.93617" lon="5.51732">
        <ele>1941.599975586</ele>
        <time>2014-08-24T08:15:38Z</time>
      </trkpt>
      <trkpt lat="44.93607" lon="5.51699">
        <ele>1927.400024414</ele>
        <time>2014-08-24T08:15:54Z</time>
      </trkpt>
      <trkpt lat="44.93605" lon="5.51664">
        <ele>1915.199951172</ele>
        <time>2014-08-24T08:16:05Z</time>
      </trkpt>
      <trkpt lat="44.93604" lon="5.51636">
        <ele>1905.800048828</ele>
        <time>2014-08-24T08:16:14Z</time>
      </trkpt>
      <trkpt lat="44.93621" lon="5.51612">
        <ele>1902.800048828</ele>
        <time>2014-08-24T08:18:30Z</time>
      </trkpt>
      <trkpt lat="44.93622" lon="5.51582">
        <ele>1896.599975586</ele>
        <time>2014-08-24T08:18:50Z</time>
      </trkpt>
      <trkpt lat="44.93622" lon="5.51557">
        <ele>1890.599975586</ele>
        <time>2014-08-24T08:19:07Z</time>
      </trkpt>
      <trkpt lat="44.93624" lon="5.51527">
        <ele>1883.599975586</ele>
        <time>2014-08-24T08:19:42Z</time>
      </trkpt>
      <trkpt lat="44.93605" lon="5.5152">
        <ele>1876.199951172</ele>
        <time>2014-08-24T08:20:10Z</time>
      </trkpt>
      <trkpt lat="44.93606" lon="5.51491">
        <ele>1868.400024414</ele>
        <time>2014-08-24T08:20:24Z</time>
      </trkpt>
      <trkpt lat="44.93601" lon="5.51462">
        <ele>1859</ele>
        <time>2014-08-24T08:20:42Z</time>
      </trkpt>
      <trkpt lat="44.93605" lon="5.5143">
        <ele>1853</ele>
        <time>2014-08-24T08:20:52Z</time>
      </trkpt>
      <trkpt lat="44.93611" lon="5.51398">
        <ele>1848</ele>
        <time>2014-08-24T08:21:06Z</time>
      </trkpt>
      <trkpt lat="44.93605" lon="5.51373">
        <ele>1840.800048828</ele>
        <time>2014-08-24T08:21:17Z</time>
      </trkpt>
      <trkpt lat="44.9361" lon="5.51347">
        <ele>1835.800048828</ele>
        <time>2014-08-24T08:21:31Z</time>
      </trkpt>
      <trkpt lat="44.93595" lon="5.51322">
        <ele>1825.599975586</ele>
        <time>2014-08-24T08:21:50Z</time>
      </trkpt>
      <trkpt lat="44.93596" lon="5.5129">
        <ele>1818.199951172</ele>
        <time>2014-08-24T08:22:09Z</time>
      </trkpt>
      <trkpt lat="44.93605" lon="5.51262">
        <ele>1814</ele>
        <time>2014-08-24T08:22:50Z</time>
      </trkpt>
      <trkpt lat="44.93607" lon="5.51228">
        <ele>1805.400024414</ele>
        <time>2014-08-24T08:23:05Z</time>
      </trkpt>
      <trkpt lat="44.93614" lon="5.51199">
        <ele>1799.800048828</ele>
        <time>2014-08-24T08:23:25Z</time>
      </trkpt>
      <trkpt lat="44.93615" lon="5.51171">
        <ele>1793</ele>
        <time>2014-08-24T08:23:46Z</time>
      </trkpt>
      <trkpt lat="44.93631" lon="5.5115">
        <ele>1789.400024414</ele>
        <time>2014-08-24T08:24:31Z</time>
      </trkpt>
      <trkpt lat="44.93637" lon="5.51124">
        <ele>1784</ele>
        <time>2014-08-24T08:24:42Z</time>
      </trkpt>
      <trkpt lat="44.93632" lon="5.51097">
        <ele>1779.199951172</ele>
        <time>2014-08-24T08:24:59Z</time>
      </trkpt>
      <trkpt lat="44.93628" lon="5.51069">
        <ele>1774.400024414</ele>
        <time>2014-08-24T08:25:14Z</time>
      </trkpt>
      <trkpt lat="44.93629" lon="5.51042">
        <ele>1769.800048828</ele>
        <time>2014-08-24T08:25:23Z</time>
      </trkpt>
      <trkpt lat="44.93632" lon="5.51008">
        <ele>1764.599975586</ele>
        <time>2014-08-24T08:25:35Z</time>
      </trkpt>
      <trkpt lat="44.93635" lon="5.50979">
        <ele>1760.400024414</ele>
        <time>2014-08-24T08:25:45Z</time>
      </trkpt>
      <trkpt lat="44.93644" lon="5.50955">
        <ele>1755.800048828</ele>
        <time>2014-08-24T08:26:04Z</time>
      </trkpt>
      <trkpt lat="44.93651" lon="5.50929">
        <ele>1750.599975586</ele>
        <time>2014-08-24T08:26:20Z</time>
      </trkpt>
      <trkpt lat="44.9365" lon="5.50903">
        <ele>1745.199951172</ele>
        <time>2014-08-24T08:26:47Z</time>
      </trkpt>
      <trkpt lat="44.93654" lon="5.50877">
        <ele>1739.599975586</ele>
        <time>2014-08-24T08:27:03Z</time>
      </trkpt>
      <trkpt lat="44.9366" lon="5.50848">
        <ele>1734.400024414</ele>
        <time>2014-08-24T08:27:20Z</time>
      </trkpt>
      <trkpt lat="44.93663" lon="5.50822">
        <ele>1729</ele>
        <time>2014-08-24T08:27:34Z</time>
      </trkpt>
      <trkpt lat="44.93653" lon="5.50799">
        <ele>1725.599975586</ele>
        <time>2014-08-24T08:28:11Z</time>
      </trkpt>
      <trkpt lat="44.93665" lon="5.50764">
        <ele>1722</ele>
        <time>2014-08-24T08:28:27Z</time>
      </trkpt>
      <trkpt lat="44.9367" lon="5.50732">
        <ele>1720.400024414</ele>
        <time>2014-08-24T08:28:49Z</time>
      </trkpt>
      <trkpt lat="44.93671" lon="5.50706">
        <ele>1718.199951172</ele>
        <time>2014-08-24T08:29:01Z</time>
      </trkpt>
      <trkpt lat="44.93665" lon="5.50677">
        <ele>1714.400024414</ele>
        <time>2014-08-24T08:29:15Z</time>
      </trkpt>
      <trkpt lat="44.93665" lon="5.50643">
        <ele>1710.199951172</ele>
        <time>2014-08-24T08:29:28Z</time>
      </trkpt>
      <trkpt lat="44.9365" lon="5.50613">
        <ele>1706.599975586</ele>
        <time>2014-08-24T08:29:42Z</time>
      </trkpt>
      <trkpt lat="44.93645" lon="5.50588">
        <ele>1702.800048828</ele>
        <time>2014-08-24T08:29:54Z</time>
      </trkpt>
      <trkpt lat="44.93633" lon="5.50562">
        <ele>1699.400024414</ele>
        <time>2014-08-24T08:30:08Z</time>
      </trkpt>
      <trkpt lat="44.9363" lon="5.50537">
        <ele>1695.199951172</ele>
        <time>2014-08-24T08:30:20Z</time>
      </trkpt>
      <trkpt lat="44.93628" lon="5.50507">
        <ele>1690.400024414</ele>
        <time>2014-08-24T08:30:34Z</time>
      </trkpt>
      <trkpt lat="44.93617" lon="5.5048">
        <ele>1684.800048828</ele>
        <time>2014-08-24T08:30:53Z</time>
      </trkpt>
      <trkpt lat="44.93608" lon="5.50457">
        <ele>1678.599975586</ele>
        <time>2014-08-24T08:31:04Z</time>
      </trkpt>
      <trkpt lat="44.93605" lon="5.50429">
        <ele>1672.599975586</ele>
        <time>2014-08-24T08:31:24Z</time>
      </trkpt>
      <trkpt lat="44.93601" lon="5.50403">
        <ele>1667</ele>
        <time>2014-08-24T08:31:39Z</time>
      </trkpt>
      <trkpt lat="44.93591" lon="5.50382">
        <ele>1660.599975586</ele>
        <time>2014-08-24T08:31:56Z</time>
      </trkpt>
      <trkpt lat="44.93583" lon="5.50358">
        <ele>1654.800048828</ele>
        <time>2014-08-24T08:32:08Z</time>
      </trkpt>
      <trkpt lat="44.93576" lon="5.50332">
        <ele>1648.800048828</ele>
        <time>2014-08-24T08:32:20Z</time>
      </trkpt>
      <trkpt lat="44.93571" lon="5.503">
        <ele>1641.400024414</ele>
        <time>2014-08-24T08:32:49Z</time>
      </trkpt>
      <trkpt lat="44.93562" lon="5.50278">
        <ele>1635.599975586</ele>
        <time>2014-08-24T08:32:57Z</time>
      </trkpt>
      <trkpt lat="44.93563" lon="5.50252">
        <ele>1630.599975586</ele>
        <time>2014-08-24T08:33:07Z</time>
      </trkpt>
      <trkpt lat="44.93564" lon="5.50222">
        <ele>1624.800048828</ele>
        <time>2014-08-24T08:33:17Z</time>
      </trkpt>
      <trkpt lat="44.93563" lon="5.50194">
        <ele>1622.400024414</ele>
        <time>2014-08-24T08:33:55Z</time>
      </trkpt>
      <trkpt lat="44.93549" lon="5.50175">
        <ele>1619.199951172</ele>
        <time>2014-08-24T08:34:28Z</time>
      </trkpt>
      <trkpt lat="44.93529" lon="5.50172">
        <ele>1616.800048828</ele>
        <time>2014-08-24T08:34:38Z</time>
      </trkpt>
      <trkpt lat="44.93512" lon="5.50156">
        <ele>1614.599975586</ele>
        <time>2014-08-24T08:34:53Z</time>
      </trkpt>
      <trkpt lat="44.93497" lon="5.5014">
        <ele>1612.599975586</ele>
        <time>2014-08-24T08:35:01Z</time>
      </trkpt>
      <trkpt lat="44.93471" lon="5.50121">
        <ele>1610</ele>
        <time>2014-08-24T08:35:14Z</time>
      </trkpt>
      <trkpt lat="44.93463" lon="5.50097">
        <ele>1609</ele>
        <time>2014-08-24T08:35:22Z</time>
      </trkpt>
      <trkpt lat="44.93445" lon="5.5008">
        <ele>1608.400024414</ele>
        <time>2014-08-24T08:35:40Z</time>
      </trkpt>
      <trkpt lat="44.93439" lon="5.50056">
        <ele>1608</ele>
        <time>2014-08-24T08:35:55Z</time>
      </trkpt>
      <trkpt lat="44.93424" lon="5.50043">
        <ele>1608.800048828</ele>
        <time>2014-08-24T08:36:09Z</time>
      </trkpt>
      <trkpt lat="44.93403" lon="5.50034">
        <ele>1609.599975586</ele>
        <time>2014-08-24T08:36:25Z</time>
      </trkpt>
      <trkpt lat="44.93384" lon="5.50021">
        <ele>1610.800048828</ele>
        <time>2014-08-24T08:36:41Z</time>
      </trkpt>
      <trkpt lat="44.93363" lon="5.50023">
        <ele>1611.199951172</ele>
        <time>2014-08-24T08:36:57Z</time>
      </trkpt>
      <trkpt lat="44.93344" lon="5.50026">
        <ele>1613.199951172</ele>
        <time>2014-08-24T08:37:09Z</time>
      </trkpt>
      <trkpt lat="44.93318" lon="5.50017">
        <ele>1618.199951172</ele>
        <time>2014-08-24T08:37:21Z</time>
      </trkpt>
      <trkpt lat="44.93296" lon="5.5001">
        <ele>1622.800048828</ele>
        <time>2014-08-24T08:37:34Z</time>
      </trkpt>
      <trkpt lat="44.93278" lon="5.50014">
        <ele>1624.400024414</ele>
        <time>2014-08-24T08:37:50Z</time>
      </trkpt>
      <trkpt lat="44.93258" lon="5.50007">
        <ele>1623.800048828</ele>
        <time>2014-08-24T08:38:00Z</time>
      </trkpt>
      <trkpt lat="44.9324" lon="5.49999">
        <ele>1623.400024414</ele>
        <time>2014-08-24T08:38:11Z</time>
      </trkpt>
      <trkpt lat="44.93223" lon="5.49988">
        <ele>1623</ele>
        <time>2014-08-24T08:38:27Z</time>
      </trkpt>
      <trkpt lat="44.93206" lon="5.4997">
        <ele>1621.400024414</ele>
        <time>2014-08-24T08:38:37Z</time>
      </trkpt>
      <trkpt lat="44.93189" lon="5.49944">
        <ele>1618.400024414</ele>
        <time>2014-08-24T08:38:47Z</time>
      </trkpt>
      <trkpt lat="44.9317" lon="5.49917">
        <ele>1615.400024414</ele>
        <time>2014-08-24T08:38:59Z</time>
      </trkpt>
      <trkpt lat="44.93156" lon="5.49902">
        <ele>1613.400024414</ele>
        <time>2014-08-24T08:39:07Z</time>
      </trkpt>
      <trkpt lat="44.93143" lon="5.49879">
        <ele>1611.400024414</ele>
        <time>2014-08-24T08:39:16Z</time>
      </trkpt>
      <trkpt lat="44.93135" lon="5.49855">
        <ele>1610.199951172</ele>
        <time>2014-08-24T08:39:26Z</time>
      </trkpt>
      <trkpt lat="44.9312" lon="5.4984">
        <ele>1609.199951172</ele>
        <time>2014-08-24T08:39:37Z</time>
      </trkpt>
      <trkpt lat="44.93094" lon="5.49829">
        <ele>1611.199951172</ele>
        <time>2014-08-24T08:39:51Z</time>
      </trkpt>
      <trkpt lat="44.93078" lon="5.49809">
        <ele>1612</ele>
        <time>2014-08-24T08:40:00Z</time>
      </trkpt>
      <trkpt lat="44.9307" lon="5.49779">
        <ele>1610.199951172</ele>
        <time>2014-08-24T08:40:10Z</time>
      </trkpt>
      <trkpt lat="44.93041" lon="5.49765">
        <ele>1611.199951172</ele>
        <time>2014-08-24T08:40:26Z</time>
      </trkpt>
      <trkpt lat="44.93016" lon="5.49741">
        <ele>1609.800048828</ele>
        <time>2014-08-24T08:40:39Z</time>
      </trkpt>
      <trkpt lat="44.93001" lon="5.49718">
        <ele>1608</ele>
        <time>2014-08-24T08:40:50Z</time>
      </trkpt>
      <trkpt lat="44.92984" lon="5.49701">
        <ele>1606.800048828</ele>
        <time>2014-08-24T08:41:00Z</time>
      </trkpt>
      <trkpt lat="44.92965" lon="5.49694">
        <ele>1607</ele>
        <time>2014-08-24T08:41:09Z</time>
      </trkpt>
      <trkpt lat="44.92947" lon="5.49673">
        <ele>1605.800048828</ele>
        <time>2014-08-24T08:41:20Z</time>
      </trkpt>
      <trkpt lat="44.92928" lon="5.49649">
        <ele>1604.800048828</ele>
        <time>2014-08-24T08:42:21Z</time>
      </trkpt>
      <trkpt lat="44.92912" lon="5.49628">
        <ele>1603.199951172</ele>
        <time>2014-08-24T08:42:27Z</time>
      </trkpt>
      <trkpt lat="44.92892" lon="5.49616">
        <ele>1602.599975586</ele>
        <time>2014-08-24T08:42:34Z</time>
      </trkpt>
      <trkpt lat="44.92876" lon="5.49593">
        <ele>1599.599975586</ele>
        <time>2014-08-24T08:42:43Z</time>
      </trkpt>
      <trkpt lat="44.92858" lon="5.49578">
        <ele>1597.400024414</ele>
        <time>2014-08-24T08:42:51Z</time>
      </trkpt>
      <trkpt lat="44.92834" lon="5.4957">
        <ele>1596.400024414</ele>
        <time>2014-08-24T08:43:04Z</time>
      </trkpt>
      <trkpt lat="44.92812" lon="5.49574">
        <ele>1598</ele>
        <time>2014-08-24T08:43:17Z</time>
      </trkpt>
      <trkpt lat="44.92791" lon="5.49579">
        <ele>1599</ele>
        <time>2014-08-24T08:43:29Z</time>
      </trkpt>
      <trkpt lat="44.92773" lon="5.49585">
        <ele>1599</ele>
        <time>2014-08-24T08:43:55Z</time>
      </trkpt>
      <trkpt lat="44.92755" lon="5.49575">
        <ele>1596.400024414</ele>
        <time>2014-08-24T08:44:11Z</time>
      </trkpt>
      <trkpt lat="44.92734" lon="5.4957">
        <ele>1594.599975586</ele>
        <time>2014-08-24T08:44:31Z</time>
      </trkpt>
      <trkpt lat="44.92714" lon="5.4957">
        <ele>1593.400024414</ele>
        <time>2014-08-24T08:45:12Z</time>
      </trkpt>
      <trkpt lat="44.92695" lon="5.49583">
        <ele>1594.599975586</ele>
        <time>2014-08-24T08:45:53Z</time>
      </trkpt>
      <trkpt lat="44.92674" lon="5.49594">
        <ele>1596</ele>
        <time>2014-08-24T08:46:02Z</time>
      </trkpt>
      <trkpt lat="44.92652" lon="5.49592">
        <ele>1594</ele>
        <time>2014-08-24T08:46:10Z</time>
      </trkpt>
      <trkpt lat="44.92633" lon="5.49589">
        <ele>1591.400024414</ele>
        <time>2014-08-24T08:46:17Z</time>
      </trkpt>
      <trkpt lat="44.92605" lon="5.49588">
        <ele>1591.800048828</ele>
        <time>2014-08-24T08:46:27Z</time>
      </trkpt>
      <trkpt lat="44.92583" lon="5.49574">
        <ele>1592.800048828</ele>
        <time>2014-08-24T08:46:38Z</time>
      </trkpt>
      <trkpt lat="44.9256" lon="5.49573">
        <ele>1594.400024414</ele>
        <time>2014-08-24T08:46:49Z</time>
      </trkpt>
      <trkpt lat="44.92536" lon="5.49578">
        <ele>1595</ele>
        <time>2014-08-24T08:47:01Z</time>
      </trkpt>
      <trkpt lat="44.92518" lon="5.49597">
        <ele>1595</ele>
        <time>2014-08-24T08:47:17Z</time>
      </trkpt>
      <trkpt lat="44.92498" lon="5.49614">
        <ele>1597.400024414</ele>
        <time>2014-08-24T08:47:38Z</time>
      </trkpt>
      <trkpt lat="44.92492" lon="5.49643">
        <ele>1600.800048828</ele>
        <time>2014-08-24T08:47:56Z</time>
      </trkpt>
      <trkpt lat="44.92476" lon="5.49666">
        <ele>1605.199951172</ele>
        <time>2014-08-24T08:48:07Z</time>
      </trkpt>
      <trkpt lat="44.92459" lon="5.49683">
        <ele>1610.800048828</ele>
        <time>2014-08-24T08:48:28Z</time>
      </trkpt>
      <trkpt lat="44.9244" lon="5.49687">
        <ele>1612.199951172</ele>
        <time>2014-08-24T08:48:48Z</time>
      </trkpt>
      <trkpt lat="44.92437" lon="5.49715">
        <ele>1616.599975586</ele>
        <time>2014-08-24T08:49:14Z</time>
      </trkpt>
      <trkpt lat="44.92427" lon="5.49741">
        <ele>1620.599975586</ele>
        <time>2014-08-24T08:49:32Z</time>
      </trkpt>
      <trkpt lat="44.92418" lon="5.49768">
        <ele>1625</ele>
        <time>2014-08-24T08:49:55Z</time>
      </trkpt>
      <trkpt lat="44.92412" lon="5.49795">
        <ele>1629.800048828</ele>
        <time>2014-08-24T08:50:14Z</time>
      </trkpt>
      <trkpt lat="44.92406" lon="5.49821">
        <ele>1633.800048828</ele>
        <time>2014-08-24T08:50:34Z</time>
      </trkpt>
      <trkpt lat="44.9241" lon="5.49848">
        <ele>1637</ele>
        <time>2014-08-24T08:50:52Z</time>
      </trkpt>
      <trkpt lat="44.92413" lon="5.4988">
        <ele>1640.599975586</ele>
        <time>2014-08-24T08:51:13Z</time>
      </trkpt>
      <trkpt lat="44.92403" lon="5.49912">
        <ele>1645.400024414</ele>
        <time>2014-08-24T08:51:36Z</time>
      </trkpt>
      <trkpt lat="44.92387" lon="5.49932">
        <ele>1648.800048828</ele>
        <time>2014-08-24T08:51:57Z</time>
      </trkpt>
      <trkpt lat="44.92383" lon="5.49961">
        <ele>1652.800048828</ele>
        <time>2014-08-24T08:52:16Z</time>
      </trkpt>
      <trkpt lat="44.92366" lon="5.49982">
        <ele>1655.599975586</ele>
        <time>2014-08-24T08:52:34Z</time>
      </trkpt>
      <trkpt lat="44.92347" lon="5.49999">
        <ele>1657.800048828</ele>
        <time>2014-08-24T08:52:55Z</time>
      </trkpt>
      <trkpt lat="44.92341" lon="5.50031">
        <ele>1660.599975586</ele>
        <time>2014-08-24T08:53:17Z</time>
      </trkpt>
      <trkpt lat="44.92334" lon="5.50067">
        <ele>1662.199951172</ele>
        <time>2014-08-24T08:53:34Z</time>
      </trkpt>
      <trkpt lat="44.92318" lon="5.50081">
        <ele>1662.400024414</ele>
        <time>2014-08-24T08:53:47Z</time>
      </trkpt>
      <trkpt lat="44.92308" lon="5.50109">
        <ele>1663.199951172</ele>
        <time>2014-08-24T08:53:59Z</time>
      </trkpt>
      <trkpt lat="44.92299" lon="5.50138">
        <ele>1664.199951172</ele>
        <time>2014-08-24T08:54:10Z</time>
      </trkpt>
      <trkpt lat="44.92285" lon="5.5018">
        <ele>1664.400024414</ele>
        <time>2014-08-24T08:54:25Z</time>
      </trkpt>
      <trkpt lat="44.92264" lon="5.50197">
        <ele>1664.199951172</ele>
        <time>2014-08-24T08:54:38Z</time>
      </trkpt>
      <trkpt lat="44.92233" lon="5.50207">
        <ele>1662.400024414</ele>
        <time>2014-08-24T08:54:51Z</time>
      </trkpt>
      <trkpt lat="44.92208" lon="5.50208">
        <ele>1661.199951172</ele>
        <time>2014-08-24T08:55:03Z</time>
      </trkpt>
      <trkpt lat="44.92189" lon="5.5021">
        <ele>1660.400024414</ele>
        <time>2014-08-24T08:55:17Z</time>
      </trkpt>
      <trkpt lat="44.92169" lon="5.50207">
        <ele>1659.400024414</ele>
        <time>2014-08-24T08:55:35Z</time>
      </trkpt>
      <trkpt lat="44.9215" lon="5.50211">
        <ele>1658.400024414</ele>
        <time>2014-08-24T08:55:55Z</time>
      </trkpt>
      <trkpt lat="44.92131" lon="5.50215">
        <ele>1657.400024414</ele>
        <time>2014-08-24T08:56:24Z</time>
      </trkpt>
      <trkpt lat="44.92107" lon="5.50207">
        <ele>1657.199951172</ele>
        <time>2014-08-24T08:57:31Z</time>
      </trkpt>
      <trkpt lat="44.92087" lon="5.50196">
        <ele>1657.199951172</ele>
        <time>2014-08-24T08:57:41Z</time>
      </trkpt>
      <trkpt lat="44.92068" lon="5.502">
        <ele>1657.199951172</ele>
        <time>2014-08-24T08:57:48Z</time>
      </trkpt>
      <trkpt lat="44.92041" lon="5.50191">
        <ele>1657.400024414</ele>
        <time>2014-08-24T08:57:58Z</time>
      </trkpt>
      <trkpt lat="44.92019" lon="5.50194">
        <ele>1656.599975586</ele>
        <time>2014-08-24T08:58:08Z</time>
      </trkpt>
      <trkpt lat="44.9199" lon="5.5019">
        <ele>1655.599975586</ele>
        <time>2014-08-24T08:58:19Z</time>
      </trkpt>
      <trkpt lat="44.91967" lon="5.50188">
        <ele>1654.599975586</ele>
        <time>2014-08-24T08:58:30Z</time>
      </trkpt>
      <trkpt lat="44.91947" lon="5.50185">
        <ele>1653.599975586</ele>
        <time>2014-08-24T08:58:39Z</time>
      </trkpt>
      <trkpt lat="44.91928" lon="5.50175">
        <ele>1652.400024414</ele>
        <time>2014-08-24T08:58:48Z</time>
      </trkpt>
      <trkpt lat="44.9191" lon="5.50169">
        <ele>1651.199951172</ele>
        <time>2014-08-24T08:58:56Z</time>
      </trkpt>
      <trkpt lat="44.91886" lon="5.5016">
        <ele>1650.199951172</ele>
        <time>2014-08-24T08:59:06Z</time>
      </trkpt>
      <trkpt lat="44.91867" lon="5.50146">
        <ele>1648.800048828</ele>
        <time>2014-08-24T08:59:16Z</time>
      </trkpt>
      <trkpt lat="44.91851" lon="5.50113">
        <ele>1645.800048828</ele>
        <time>2014-08-24T08:59:27Z</time>
      </trkpt>
      <trkpt lat="44.91836" lon="5.50083">
        <ele>1643.599975586</ele>
        <time>2014-08-24T08:59:37Z</time>
      </trkpt>
      <trkpt lat="44.91813" lon="5.50069">
        <ele>1640.199951172</ele>
        <time>2014-08-24T08:59:46Z</time>
      </trkpt>
      <trkpt lat="44.91785" lon="5.50055">
        <ele>1636.800048828</ele>
        <time>2014-08-24T08:59:56Z</time>
      </trkpt>
      <trkpt lat="44.91759" lon="5.50025">
        <ele>1632.800048828</ele>
        <time>2014-08-24T09:00:08Z</time>
      </trkpt>
      <trkpt lat="44.9174" lon="5.50022">
        <ele>1630.800048828</ele>
        <time>2014-08-24T09:00:15Z</time>
      </trkpt>
      <trkpt lat="44.91729" lon="5.50045">
        <ele>1630.800048828</ele>
        <time>2014-08-24T09:00:30Z</time>
      </trkpt>
      <trkpt lat="44.91712" lon="5.50028">
        <ele>1628.400024414</ele>
        <time>2014-08-24T09:00:38Z</time>
      </trkpt>
      <trkpt lat="44.91695" lon="5.50007">
        <ele>1624.400024414</ele>
        <time>2014-08-24T09:00:47Z</time>
      </trkpt>
      <trkpt lat="44.91683" lon="5.49977">
        <ele>1620.599975586</ele>
        <time>2014-08-24T09:00:57Z</time>
      </trkpt>
      <trkpt lat="44.91666" lon="5.49962">
        <ele>1616.400024414</ele>
        <time>2014-08-24T09:01:06Z</time>
      </trkpt>
      <trkpt lat="44.91651" lon="5.49948">
        <ele>1612.400024414</ele>
        <time>2014-08-24T09:01:17Z</time>
      </trkpt>
      <trkpt lat="44.91631" lon="5.49952">
        <ele>1608.599975586</ele>
        <time>2014-08-24T09:01:45Z</time>
      </trkpt>
      <trkpt lat="44.9162" lon="5.49931">
        <ele>1606</ele>
        <time>2014-08-24T09:02:01Z</time>
      </trkpt>
      <trkpt lat="44.91598" lon="5.4993">
        <ele>1606.800048828</ele>
        <time>2014-08-24T09:02:20Z</time>
      </trkpt>
      <trkpt lat="44.91577" lon="5.49932">
        <ele>1607.400024414</ele>
        <time>2014-08-24T09:02:30Z</time>
      </trkpt>
      <trkpt lat="44.91564" lon="5.49957">
        <ele>1609</ele>
        <time>2014-08-24T09:02:43Z</time>
      </trkpt>
      <trkpt lat="44.91555" lon="5.49981">
        <ele>1610.199951172</ele>
        <time>2014-08-24T09:02:51Z</time>
      </trkpt>
      <trkpt lat="44.91547" lon="5.5002">
        <ele>1610.599975586</ele>
        <time>2014-08-24T09:03:02Z</time>
      </trkpt>
      <trkpt lat="44.9154" lon="5.50056">
        <ele>1611.199951172</ele>
        <time>2014-08-24T09:03:16Z</time>
      </trkpt>
      <trkpt lat="44.91526" lon="5.50074">
        <ele>1612.199951172</ele>
        <time>2014-08-24T09:03:29Z</time>
      </trkpt>
      <trkpt lat="44.91515" lon="5.50095">
        <ele>1613.199951172</ele>
        <time>2014-08-24T09:03:52Z</time>
      </trkpt>
      <trkpt lat="44.91498" lon="5.50109">
        <ele>1614.199951172</ele>
        <time>2014-08-24T09:04:33Z</time>
      </trkpt>
      <trkpt lat="44.91481" lon="5.50119">
        <ele>1615</ele>
        <time>2014-08-24T09:04:53Z</time>
      </trkpt>
      <trkpt lat="44.9146" lon="5.50124">
        <ele>1615.800048828</ele>
        <time>2014-08-24T09:05:14Z</time>
      </trkpt>
      <trkpt lat="44.91445" lon="5.50108">
        <ele>1616.199951172</ele>
        <time>2014-08-24T09:05:25Z</time>
      </trkpt>
      <trkpt lat="44.91431" lon="5.50092">
        <ele>1616.400024414</ele>
        <time>2014-08-24T09:05:33Z</time>
      </trkpt>
      <trkpt lat="44.9141" lon="5.50085">
        <ele>1617.199951172</ele>
        <time>2014-08-24T09:05:43Z</time>
      </trkpt>
      <trkpt lat="44.91387" lon="5.50086">
        <ele>1617.199951172</ele>
        <time>2014-08-24T09:05:53Z</time>
      </trkpt>
      <trkpt lat="44.91376" lon="5.50109">
        <ele>1616.599975586</ele>
        <time>2014-08-24T09:06:12Z</time>
      </trkpt>
      <trkpt lat="44.91358" lon="5.50121">
        <ele>1617</ele>
        <time>2014-08-24T09:06:26Z</time>
      </trkpt>
      <trkpt lat="44.91336" lon="5.50136">
        <ele>1616.800048828</ele>
        <time>2014-08-24T09:06:42Z</time>
      </trkpt>
      <trkpt lat="44.91313" lon="5.50159">
        <ele>1619.400024414</ele>
        <time>2014-08-24T09:06:59Z</time>
      </trkpt>
      <trkpt lat="44.91286" lon="5.50164">
        <ele>1619.199951172</ele>
        <time>2014-08-24T09:07:10Z</time>
      </trkpt>
      <trkpt lat="44.91263" lon="5.50167">
        <ele>1619.800048828</ele>
        <time>2014-08-24T09:07:21Z</time>
      </trkpt>
      <trkpt lat="44.91239" lon="5.5018">
        <ele>1619</ele>
        <time>2014-08-24T09:07:37Z</time>
      </trkpt>
      <trkpt lat="44.91222" lon="5.50195">
        <ele>1616.199951172</ele>
        <time>2014-08-24T09:08:04Z</time>
      </trkpt>
      <trkpt lat="44.91204" lon="5.50203">
        <ele>1613.800048828</ele>
        <time>2014-08-24T09:08:20Z</time>
      </trkpt>
      <trkpt lat="44.91177" lon="5.50207">
        <ele>1613.199951172</ele>
        <time>2014-08-24T09:08:34Z</time>
      </trkpt>
      <trkpt lat="44.9116" lon="5.50198">
        <ele>1613.400024414</ele>
        <time>2014-08-24T09:09:05Z</time>
      </trkpt>
      <trkpt lat="44.91142" lon="5.50179">
        <ele>1614</ele>
        <time>2014-08-24T09:09:37Z</time>
      </trkpt>
      <trkpt lat="44.91121" lon="5.50181">
        <ele>1614</ele>
        <time>2014-08-24T09:10:05Z</time>
      </trkpt>
      <trkpt lat="44.911" lon="5.502">
        <ele>1615.400024414</ele>
        <time>2014-08-24T09:10:25Z</time>
      </trkpt>
      <trkpt lat="44.91081" lon="5.50209">
        <ele>1617.800048828</ele>
        <time>2014-08-24T09:10:40Z</time>
      </trkpt>
      <trkpt lat="44.91063" lon="5.50224">
        <ele>1620.400024414</ele>
        <time>2014-08-24T09:11:10Z</time>
      </trkpt>
      <trkpt lat="44.91045" lon="5.50234">
        <ele>1622.599975586</ele>
        <time>2014-08-24T09:11:29Z</time>
      </trkpt>
      <trkpt lat="44.91036" lon="5.50261">
        <ele>1623.599975586</ele>
        <time>2014-08-24T09:12:24Z</time>
      </trkpt>
      <trkpt lat="44.91037" lon="5.50296">
        <ele>1623.400024414</ele>
        <time>2014-08-24T09:12:39Z</time>
      </trkpt>
      <trkpt lat="44.91035" lon="5.50322">
        <ele>1624</ele>
        <time>2014-08-24T09:12:48Z</time>
      </trkpt>
      <trkpt lat="44.91029" lon="5.50348">
        <ele>1625.199951172</ele>
        <time>2014-08-24T09:12:57Z</time>
      </trkpt>
      <trkpt lat="44.91016" lon="5.50372">
        <ele>1626.400024414</ele>
        <time>2014-08-24T09:13:14Z</time>
      </trkpt>
      <trkpt lat="44.91004" lon="5.50393">
        <ele>1627.400024414</ele>
        <time>2014-08-24T09:13:31Z</time>
      </trkpt>
      <trkpt lat="44.90996" lon="5.50418">
        <ele>1630.199951172</ele>
        <time>2014-08-24T09:13:49Z</time>
      </trkpt>
      <trkpt lat="44.90989" lon="5.50443">
        <ele>1628.400024414</ele>
        <time>2014-08-24T09:14:19Z</time>
      </trkpt>
      <trkpt lat="44.91" lon="5.50465">
        <ele>1627.800048828</ele>
        <time>2014-08-24T09:15:03Z</time>
      </trkpt>
      <trkpt lat="44.91" lon="5.50501">
        <ele>1631.599975586</ele>
        <time>2014-08-24T09:15:24Z</time>
      </trkpt>
      <trkpt lat="44.90994" lon="5.50525">
        <ele>1632.599975586</ele>
        <time>2014-08-24T09:15:39Z</time>
      </trkpt>
      <trkpt lat="44.90983" lon="5.5055">
        <ele>1632.199951172</ele>
        <time>2014-08-24T09:15:53Z</time>
      </trkpt>
      <trkpt lat="44.90975" lon="5.50581">
        <ele>1634.800048828</ele>
        <time>2014-08-24T09:16:12Z</time>
      </trkpt>
      <trkpt lat="44.90973" lon="5.50616">
        <ele>1638.199951172</ele>
        <time>2014-08-24T09:16:32Z</time>
      </trkpt>
      <trkpt lat="44.90973" lon="5.50644">
        <ele>1642</ele>
        <time>2014-08-24T09:16:48Z</time>
      </trkpt>
      <trkpt lat="44.90969" lon="5.50672">
        <ele>1645.599975586</ele>
        <time>2014-08-24T09:17:06Z</time>
      </trkpt>
      <trkpt lat="44.9097" lon="5.50698">
        <ele>1650</ele>
        <time>2014-08-24T09:17:23Z</time>
      </trkpt>
      <trkpt lat="44.90972" lon="5.50724">
        <ele>1654</ele>
        <time>2014-08-24T09:17:40Z</time>
      </trkpt>
      <trkpt lat="44.90977" lon="5.5075">
        <ele>1658.400024414</ele>
        <time>2014-08-24T09:17:56Z</time>
      </trkpt>
      <trkpt lat="44.90982" lon="5.50776">
        <ele>1663.199951172</ele>
        <time>2014-08-24T09:18:12Z</time>
      </trkpt>
      <trkpt lat="44.90993" lon="5.50809">
        <ele>1669.800048828</ele>
        <time>2014-08-24T09:18:33Z</time>
      </trkpt>
      <trkpt lat="44.90996" lon="5.50838">
        <ele>1673.800048828</ele>
        <time>2014-08-24T09:18:51Z</time>
      </trkpt>
      <trkpt lat="44.90995" lon="5.50865">
        <ele>1676.400024414</ele>
        <time>2014-08-24T09:19:11Z</time>
      </trkpt>
      <trkpt lat="44.90994" lon="5.50896">
        <ele>1680.400024414</ele>
        <time>2014-08-24T09:19:33Z</time>
      </trkpt>
      <trkpt lat="44.90993" lon="5.50922">
        <ele>1685</ele>
        <time>2014-08-24T09:19:51Z</time>
      </trkpt>
      <trkpt lat="44.90989" lon="5.50951">
        <ele>1688.800048828</ele>
        <time>2014-08-24T09:20:10Z</time>
      </trkpt>
      <trkpt lat="44.90976" lon="5.50975">
        <ele>1690.599975586</ele>
        <time>2014-08-24T09:20:30Z</time>
      </trkpt>
      <trkpt lat="44.90994" lon="5.50978">
        <ele>1694.800048828</ele>
        <time>2014-08-24T09:20:55Z</time>
      </trkpt>
      <trkpt lat="44.91012" lon="5.50972">
        <ele>1696.599975586</ele>
        <time>2014-08-24T09:21:43Z</time>
      </trkpt>
      <trkpt lat="44.91023" lon="5.50995">
        <ele>1704.599975586</ele>
        <time>2014-08-24T09:22:17Z</time>
      </trkpt>
      <trkpt lat="44.91033" lon="5.51017">
        <ele>1711.800048828</ele>
        <time>2014-08-24T09:22:48Z</time>
      </trkpt>
      <trkpt lat="44.91045" lon="5.51038">
        <ele>1718.599975586</ele>
        <time>2014-08-24T09:23:38Z</time>
      </trkpt>
      <trkpt lat="44.91047" lon="5.51066">
        <ele>1724.599975586</ele>
        <time>2014-08-24T09:24:35Z</time>
      </trkpt>
      <trkpt lat="44.91057" lon="5.51094">
        <ele>1731.199951172</ele>
        <time>2014-08-24T09:25:10Z</time>
      </trkpt>
      <trkpt lat="44.91052" lon="5.51119">
        <ele>1737.400024414</ele>
        <time>2014-08-24T09:25:39Z</time>
      </trkpt>
      <trkpt lat="44.9105" lon="5.51149">
        <ele>1744.800048828</ele>
        <time>2014-08-24T09:26:15Z</time>
      </trkpt>
      <trkpt lat="44.91039" lon="5.51173">
        <ele>1751.199951172</ele>
        <time>2014-08-24T09:26:40Z</time>
      </trkpt>
      <trkpt lat="44.91039" lon="5.512">
        <ele>1758.400024414</ele>
        <time>2014-08-24T09:27:06Z</time>
      </trkpt>
      <trkpt lat="44.91038" lon="5.51226">
        <ele>1764.400024414</ele>
        <time>2014-08-24T09:27:33Z</time>
      </trkpt>
      <trkpt lat="44.91028" lon="5.5125">
        <ele>1768</ele>
        <time>2014-08-24T09:28:02Z</time>
      </trkpt>
      <trkpt lat="44.91012" lon="5.51265">
        <ele>1767.800048828</ele>
        <time>2014-08-24T09:28:30Z</time>
      </trkpt>
      <trkpt lat="44.90999" lon="5.51287">
        <ele>1768.599975586</ele>
        <time>2014-08-24T09:28:51Z</time>
      </trkpt>
      <trkpt lat="44.90988" lon="5.51314">
        <ele>1771.800048828</ele>
        <time>2014-08-24T09:29:25Z</time>
      </trkpt>
      <trkpt lat="44.91005" lon="5.51326">
        <ele>1780</ele>
        <time>2014-08-24T09:29:46Z</time>
      </trkpt>
      <trkpt lat="44.9102" lon="5.51341">
        <ele>1788.599975586</ele>
        <time>2014-08-24T09:30:05Z</time>
      </trkpt>
      <trkpt lat="44.91028" lon="5.51364">
        <ele>1797.400024414</ele>
        <time>2014-08-24T09:30:26Z</time>
      </trkpt>
      <trkpt lat="44.91047" lon="5.51379">
        <ele>1804.599975586</ele>
        <time>2014-08-24T09:30:52Z</time>
      </trkpt>
      <trkpt lat="44.91059" lon="5.51401">
        <ele>1809.400024414</ele>
        <time>2014-08-24T09:31:18Z</time>
      </trkpt>
      <trkpt lat="44.91071" lon="5.51426">
        <ele>1815.599975586</ele>
        <time>2014-08-24T09:31:51Z</time>
      </trkpt>
      <trkpt lat="44.91086" lon="5.51441">
        <ele>1818.800048828</ele>
        <time>2014-08-24T09:32:09Z</time>
      </trkpt>
      <trkpt lat="44.911" lon="5.51462">
        <ele>1824</ele>
        <time>2014-08-24T09:32:29Z</time>
      </trkpt>
      <trkpt lat="44.9111" lon="5.51485">
        <ele>1829.199951172</ele>
        <time>2014-08-24T09:32:51Z</time>
      </trkpt>
      <trkpt lat="44.91091" lon="5.51492">
        <ele>1833</ele>
        <time>2014-08-24T09:33:15Z</time>
      </trkpt>
      <trkpt lat="44.91071" lon="5.51497">
        <ele>1836.199951172</ele>
        <time>2014-08-24T09:33:37Z</time>
      </trkpt>
      <trkpt lat="44.9105" lon="5.51497">
        <ele>1838.599975586</ele>
        <time>2014-08-24T09:33:56Z</time>
      </trkpt>
      <trkpt lat="44.91022" lon="5.51495">
        <ele>1834.599975586</ele>
        <time>2014-08-24T09:34:11Z</time>
      </trkpt>
      <trkpt lat="44.91005" lon="5.51512">
        <ele>1835.199951172</ele>
        <time>2014-08-24T09:34:33Z</time>
      </trkpt>
      <trkpt lat="44.90994" lon="5.51533">
        <ele>1842.800048828</ele>
        <time>2014-08-24T09:34:59Z</time>
      </trkpt>
      <trkpt lat="44.91009" lon="5.51554">
        <ele>1853</ele>
        <time>2014-08-24T09:35:42Z</time>
      </trkpt>
      <trkpt lat="44.90999" lon="5.51578">
        <ele>1858.800048828</ele>
        <time>2014-08-24T09:35:57Z</time>
      </trkpt>
      <trkpt lat="44.90983" lon="5.51593">
        <ele>1863.199951172</ele>
        <time>2014-08-24T09:36:17Z</time>
      </trkpt>
      <trkpt lat="44.90966" lon="5.51603">
        <ele>1867.599975586</ele>
        <time>2014-08-24T09:36:39Z</time>
      </trkpt>
      <trkpt lat="44.90982" lon="5.51621">
        <ele>1874.599975586</ele>
        <time>2014-08-24T09:37:08Z</time>
      </trkpt>
      <trkpt lat="44.90995" lon="5.51643">
        <ele>1881.800048828</ele>
        <time>2014-08-24T09:37:29Z</time>
      </trkpt>
      <trkpt lat="44.91012" lon="5.51657">
        <ele>1885</ele>
        <time>2014-08-24T09:37:45Z</time>
      </trkpt>
      <trkpt lat="44.91019" lon="5.51681">
        <ele>1891.599975586</ele>
        <time>2014-08-24T09:38:08Z</time>
      </trkpt>
      <trkpt lat="44.91007" lon="5.51704">
        <ele>1902.199951172</ele>
        <time>2014-08-24T09:38:49Z</time>
      </trkpt>
      <trkpt lat="44.90992" lon="5.5172">
        <ele>1911.400024414</ele>
        <time>2014-08-24T09:39:23Z</time>
      </trkpt>
      <trkpt lat="44.91001" lon="5.51743">
        <ele>1908.800048828</ele>
        <time>2014-08-24T09:42:13Z</time>
      </trkpt>
      <trkpt lat="44.90991" lon="5.51766">
        <ele>1917.400024414</ele>
        <time>2014-08-24T09:42:26Z</time>
      </trkpt>
      <trkpt lat="44.90985" lon="5.51794">
        <ele>1933.800048828</ele>
        <time>2014-08-24T09:42:37Z</time>
      </trkpt>
      <trkpt lat="44.91004" lon="5.51788">
        <ele>1918.400024414</ele>
        <time>2014-08-24T09:42:47Z</time>
      </trkpt>
      <trkpt lat="44.91004" lon="5.51815">
        <ele>1921.199951172</ele>
        <time>2014-08-24T09:43:06Z</time>
      </trkpt>
      <trkpt lat="44.91017" lon="5.51833">
        <ele>1908.800048828</ele>
        <time>2014-08-24T09:43:40Z</time>
      </trkpt>
      <trkpt lat="44.91004" lon="5.51851">
        <ele>1915.400024414</ele>
        <time>2014-08-24T09:43:56Z</time>
      </trkpt>
      <trkpt lat="44.9102" lon="5.51864">
        <ele>1900.400024414</ele>
        <time>2014-08-24T09:44:10Z</time>
      </trkpt>
      <trkpt lat="44.91016" lon="5.5189">
        <ele>1905.199951172</ele>
        <time>2014-08-24T09:44:42Z</time>
      </trkpt>
      <trkpt lat="44.91015" lon="5.51915">
        <ele>1892.199951172</ele>
        <time>2014-08-24T09:45:05Z</time>
      </trkpt>
      <trkpt lat="44.91017" lon="5.51944">
        <ele>1873.199951172</ele>
        <time>2014-08-24T09:45:48Z</time>
      </trkpt>
      <trkpt lat="44.91036" lon="5.51939">
        <ele>1854.800048828</ele>
        <time>2014-08-24T09:46:05Z</time>
      </trkpt>
      <trkpt lat="44.91056" lon="5.51948">
        <ele>1839.599975586</ele>
        <time>2014-08-24T09:46:29Z</time>
      </trkpt>
      <trkpt lat="44.91081" lon="5.51947">
        <ele>1831</ele>
        <time>2014-08-24T09:46:38Z</time>
      </trkpt>
      <trkpt lat="44.91101" lon="5.51948">
        <ele>1823.599975586</ele>
        <time>2014-08-24T09:46:44Z</time>
      </trkpt>
      <trkpt lat="44.91122" lon="5.51945">
        <ele>1820.199951172</ele>
        <time>2014-08-24T09:46:53Z</time>
      </trkpt>
      <trkpt lat="44.91107" lon="5.51959">
        <ele>1814.599975586</ele>
        <time>2014-08-24T09:47:08Z</time>
      </trkpt>
      <trkpt lat="44.91128" lon="5.51966">
        <ele>1799.599975586</ele>
        <time>2014-08-24T09:47:29Z</time>
      </trkpt>
      <trkpt lat="44.91146" lon="5.51981">
        <ele>1778.599975586</ele>
        <time>2014-08-24T09:47:57Z</time>
      </trkpt>
      <trkpt lat="44.91154" lon="5.52005">
        <ele>1758.599975586</ele>
        <time>2014-08-24T09:48:16Z</time>
      </trkpt>
      <trkpt lat="44.91153" lon="5.52034">
        <ele>1720.199951172</ele>
        <time>2014-08-24T09:48:34Z</time>
      </trkpt>
      <trkpt lat="44.91161" lon="5.52058">
        <ele>1696.400024414</ele>
        <time>2014-08-24T09:48:52Z</time>
      </trkpt>
      <trkpt lat="44.91179" lon="5.52069">
        <ele>1694.199951172</ele>
        <time>2014-08-24T09:49:17Z</time>
      </trkpt>
      <trkpt lat="44.91194" lon="5.52087">
        <ele>1689</ele>
        <time>2014-08-24T09:49:24Z</time>
      </trkpt>
      <trkpt lat="44.91222" lon="5.52105">
        <ele>1683.800048828</ele>
        <time>2014-08-24T09:49:34Z</time>
      </trkpt>
      <trkpt lat="44.9125" lon="5.52112">
        <ele>1681.800048828</ele>
        <time>2014-08-24T09:49:45Z</time>
      </trkpt>
      <trkpt lat="44.91271" lon="5.52124">
        <ele>1677.400024414</ele>
        <time>2014-08-24T09:49:54Z</time>
      </trkpt>
      <trkpt lat="44.91294" lon="5.52141">
        <ele>1671</ele>
        <time>2014-08-24T09:50:04Z</time>
      </trkpt>
      <trkpt lat="44.91313" lon="5.52163">
        <ele>1661.800048828</ele>
        <time>2014-08-24T09:50:14Z</time>
      </trkpt>
      <trkpt lat="44.91341" lon="5.52171">
        <ele>1656.199951172</ele>
        <time>2014-08-24T09:50:27Z</time>
      </trkpt>
      <trkpt lat="44.91368" lon="5.52186">
        <ele>1648.400024414</ele>
        <time>2014-08-24T09:50:38Z</time>
      </trkpt>
      <trkpt lat="44.9139" lon="5.5219">
        <ele>1641.599975586</ele>
        <time>2014-08-24T09:50:47Z</time>
      </trkpt>
      <trkpt lat="44.91413" lon="5.52196">
        <ele>1633.400024414</ele>
        <time>2014-08-24T09:51:06Z</time>
      </trkpt>
      <trkpt lat="44.91433" lon="5.52196">
        <ele>1627.400024414</ele>
        <time>2014-08-24T09:51:16Z</time>
      </trkpt>
      <trkpt lat="44.91453" lon="5.52201">
        <ele>1622.199951172</ele>
        <time>2014-08-24T09:51:24Z</time>
      </trkpt>
      <trkpt lat="44.91473" lon="5.52223">
        <ele>1613.599975586</ele>
        <time>2014-08-24T09:51:35Z</time>
      </trkpt>
      <trkpt lat="44.9149" lon="5.52233">
        <ele>1612</ele>
        <time>2014-08-24T09:51:44Z</time>
      </trkpt>
      <trkpt lat="44.91511" lon="5.52249">
        <ele>1608.400024414</ele>
        <time>2014-08-24T09:52:17Z</time>
      </trkpt>
      <trkpt lat="44.91532" lon="5.52262">
        <ele>1605.800048828</ele>
        <time>2014-08-24T09:52:51Z</time>
      </trkpt>
      <trkpt lat="44.91554" lon="5.52258">
        <ele>1611.199951172</ele>
        <time>2014-08-24T09:53:21Z</time>
      </trkpt>
      <trkpt lat="44.91575" lon="5.52262">
        <ele>1613.800048828</ele>
        <time>2014-08-24T09:53:40Z</time>
      </trkpt>
      <trkpt lat="44.916" lon="5.52271">
        <ele>1614.199951172</ele>
        <time>2014-08-24T09:53:54Z</time>
      </trkpt>
      <trkpt lat="44.91626" lon="5.52285">
        <ele>1612</ele>
        <time>2014-08-24T09:54:08Z</time>
      </trkpt>
      <trkpt lat="44.91646" lon="5.52287">
        <ele>1612</ele>
        <time>2014-08-24T09:54:17Z</time>
      </trkpt>
      <trkpt lat="44.91665" lon="5.52293">
        <ele>1610</ele>
        <time>2014-08-24T09:54:26Z</time>
      </trkpt>
      <trkpt lat="44.91689" lon="5.52285">
        <ele>1613.400024414</ele>
        <time>2014-08-24T09:54:40Z</time>
      </trkpt>
      <trkpt lat="44.9171" lon="5.52286">
        <ele>1613.800048828</ele>
        <time>2014-08-24T09:54:49Z</time>
      </trkpt>
      <trkpt lat="44.91743" lon="5.52289">
        <ele>1619</ele>
        <time>2014-08-24T09:55:02Z</time>
      </trkpt>
      <trkpt lat="44.91772" lon="5.52306">
        <ele>1619.199951172</ele>
        <time>2014-08-24T09:55:13Z</time>
      </trkpt>
      <trkpt lat="44.91792" lon="5.52329">
        <ele>1617.400024414</ele>
        <time>2014-08-24T09:55:24Z</time>
      </trkpt>
      <trkpt lat="44.91813" lon="5.5234">
        <ele>1619.599975586</ele>
        <time>2014-08-24T09:55:34Z</time>
      </trkpt>
      <trkpt lat="44.91832" lon="5.52347">
        <ele>1622.199951172</ele>
        <time>2014-08-24T09:55:43Z</time>
      </trkpt>
      <trkpt lat="44.91853" lon="5.5235">
        <ele>1625.800048828</ele>
        <time>2014-08-24T09:55:53Z</time>
      </trkpt>
      <trkpt lat="44.91877" lon="5.52353">
        <ele>1629.800048828</ele>
        <time>2014-08-24T09:56:03Z</time>
      </trkpt>
      <trkpt lat="44.919" lon="5.52367">
        <ele>1630.599975586</ele>
        <time>2014-08-24T09:56:24Z</time>
      </trkpt>
      <trkpt lat="44.91917" lon="5.52381">
        <ele>1630.400024414</ele>
        <time>2014-08-24T09:56:39Z</time>
      </trkpt>
      <trkpt lat="44.91934" lon="5.52396">
        <ele>1629.199951172</ele>
        <time>2014-08-24T09:56:53Z</time>
      </trkpt>
      <trkpt lat="44.91955" lon="5.52403">
        <ele>1630.599975586</ele>
        <time>2014-08-24T09:57:08Z</time>
      </trkpt>
      <trkpt lat="44.91981" lon="5.52401">
        <ele>1637.599975586</ele>
        <time>2014-08-24T09:57:27Z</time>
      </trkpt>
      <trkpt lat="44.92005" lon="5.52411">
        <ele>1641.400024414</ele>
        <time>2014-08-24T09:57:42Z</time>
      </trkpt>
      <trkpt lat="44.92027" lon="5.52427">
        <ele>1643</ele>
        <time>2014-08-24T09:57:53Z</time>
      </trkpt>
      <trkpt lat="44.92042" lon="5.5245">
        <ele>1639</ele>
        <time>2014-08-24T09:58:04Z</time>
      </trkpt>
      <trkpt lat="44.92055" lon="5.52474">
        <ele>1630.599975586</ele>
        <time>2014-08-24T09:58:15Z</time>
      </trkpt>
      <trkpt lat="44.92066" lon="5.52498">
        <ele>1621.199951172</ele>
        <time>2014-08-24T09:58:47Z</time>
      </trkpt>
      <trkpt lat="44.92088" lon="5.52499">
        <ele>1621.199951172</ele>
        <time>2014-08-24T09:58:56Z</time>
      </trkpt>
      <trkpt lat="44.92113" lon="5.52491">
        <ele>1626</ele>
        <time>2014-08-24T09:59:07Z</time>
      </trkpt>
      <trkpt lat="44.92123" lon="5.52463">
        <ele>1639.599975586</ele>
        <time>2014-08-24T09:59:15Z</time>
      </trkpt>
      <trkpt lat="44.92143" lon="5.52448">
        <ele>1637.800048828</ele>
        <time>2014-08-24T09:59:26Z</time>
      </trkpt>
      <trkpt lat="44.92155" lon="5.52424">
        <ele>1642.800048828</ele>
        <time>2014-08-24T09:59:38Z</time>
      </trkpt>
      <trkpt lat="44.9218" lon="5.52419">
        <ele>1632.199951172</ele>
        <time>2014-08-24T09:59:51Z</time>
      </trkpt>
      <trkpt lat="44.92198" lon="5.52428">
        <ele>1619</ele>
        <time>2014-08-24T10:00:01Z</time>
      </trkpt>
      <trkpt lat="44.92225" lon="5.52443">
        <ele>1603.599975586</ele>
        <time>2014-08-24T10:00:12Z</time>
      </trkpt>
      <trkpt lat="44.92244" lon="5.52442">
        <ele>1597.400024414</ele>
        <time>2014-08-24T10:00:22Z</time>
      </trkpt>
      <trkpt lat="44.92263" lon="5.52444">
        <ele>1590.400024414</ele>
        <time>2014-08-24T10:00:40Z</time>
      </trkpt>
      <trkpt lat="44.92279" lon="5.52425">
        <ele>1595.800048828</ele>
        <time>2014-08-24T10:00:52Z</time>
      </trkpt>
      <trkpt lat="44.92299" lon="5.52417">
        <ele>1597.800048828</ele>
        <time>2014-08-24T10:01:08Z</time>
      </trkpt>
      <trkpt lat="44.92319" lon="5.5241">
        <ele>1601</ele>
        <time>2014-08-24T10:01:45Z</time>
      </trkpt>
      <trkpt lat="44.92334" lon="5.52424">
        <ele>1594</ele>
        <time>2014-08-24T10:02:02Z</time>
      </trkpt>
      <trkpt lat="44.92351" lon="5.52442">
        <ele>1585.199951172</ele>
        <time>2014-08-24T10:02:26Z</time>
      </trkpt>
      <trkpt lat="44.92349" lon="5.52473">
        <ele>1571.199951172</ele>
        <time>2014-08-24T10:03:21Z</time>
      </trkpt>
      <trkpt lat="44.92344" lon="5.52498">
        <ele>1562.599975586</ele>
        <time>2014-08-24T10:03:29Z</time>
      </trkpt>
      <trkpt lat="44.92368" lon="5.52505">
        <ele>1560</ele>
        <time>2014-08-24T10:03:37Z</time>
      </trkpt>
      <trkpt lat="44.92392" lon="5.52504">
        <ele>1557.400024414</ele>
        <time>2014-08-24T10:03:48Z</time>
      </trkpt>
      <trkpt lat="44.92417" lon="5.52495">
        <ele>1560.199951172</ele>
        <time>2014-08-24T10:03:59Z</time>
      </trkpt>
      <trkpt lat="44.92433" lon="5.52482">
        <ele>1569.599975586</ele>
        <time>2014-08-24T10:04:10Z</time>
      </trkpt>
      <trkpt lat="44.92452" lon="5.52474">
        <ele>1576.199951172</ele>
        <time>2014-08-24T10:04:22Z</time>
      </trkpt>
      <trkpt lat="44.92478" lon="5.52474">
        <ele>1572.400024414</ele>
        <time>2014-08-24T10:04:35Z</time>
      </trkpt>
      <trkpt lat="44.92493" lon="5.52458">
        <ele>1576.599975586</ele>
        <time>2014-08-24T10:04:57Z</time>
      </trkpt>
      <trkpt lat="44.92506" lon="5.52439">
        <ele>1583</ele>
        <time>2014-08-24T10:05:18Z</time>
      </trkpt>
      <trkpt lat="44.92525" lon="5.5244">
        <ele>1578.400024414</ele>
        <time>2014-08-24T10:05:39Z</time>
      </trkpt>
      <trkpt lat="44.92537" lon="5.52421">
        <ele>1585.400024414</ele>
        <time>2014-08-24T10:06:09Z</time>
      </trkpt>
      <trkpt lat="44.92558" lon="5.52404">
        <ele>1596</ele>
        <time>2014-08-24T10:06:35Z</time>
      </trkpt>
      <trkpt lat="44.92577" lon="5.52402">
        <ele>1596.800048828</ele>
        <time>2014-08-24T10:06:49Z</time>
      </trkpt>
      <trkpt lat="44.92597" lon="5.52402">
        <ele>1596.199951172</ele>
        <time>2014-08-24T10:07:11Z</time>
      </trkpt>
      <trkpt lat="44.92613" lon="5.52415">
        <ele>1591.199951172</ele>
        <time>2014-08-24T10:07:33Z</time>
      </trkpt>
      <trkpt lat="44.92616" lon="5.52443">
        <ele>1582.199951172</ele>
        <time>2014-08-24T10:07:45Z</time>
      </trkpt>
      <trkpt lat="44.92615" lon="5.52475">
        <ele>1570.599975586</ele>
        <time>2014-08-24T10:08:09Z</time>
      </trkpt>
      <trkpt lat="44.92609" lon="5.52504">
        <ele>1561.400024414</ele>
        <time>2014-08-24T10:08:17Z</time>
      </trkpt>
      <trkpt lat="44.92616" lon="5.52533">
        <ele>1554.800048828</ele>
        <time>2014-08-24T10:08:29Z</time>
      </trkpt>
      <trkpt lat="44.92626" lon="5.5256">
        <ele>1548</ele>
        <time>2014-08-24T10:08:38Z</time>
      </trkpt>
      <trkpt lat="44.92634" lon="5.52588">
        <ele>1539.400024414</ele>
        <time>2014-08-24T10:08:50Z</time>
      </trkpt>
      <trkpt lat="44.92652" lon="5.52595">
        <ele>1542.800048828</ele>
        <time>2014-08-24T10:09:21Z</time>
      </trkpt>
      <trkpt lat="44.9267" lon="5.52587">
        <ele>1550.199951172</ele>
        <time>2014-08-24T10:09:48Z</time>
      </trkpt>
      <trkpt lat="44.9269" lon="5.52572">
        <ele>1556.199951172</ele>
        <time>2014-08-24T10:09:58Z</time>
      </trkpt>
      <trkpt lat="44.92705" lon="5.52543">
        <ele>1566</ele>
        <time>2014-08-24T10:10:08Z</time>
      </trkpt>
      <trkpt lat="44.92721" lon="5.52524">
        <ele>1573</ele>
        <time>2014-08-24T10:10:22Z</time>
      </trkpt>
      <trkpt lat="44.92733" lon="5.52503">
        <ele>1580.400024414</ele>
        <time>2014-08-24T10:10:39Z</time>
      </trkpt>
      <trkpt lat="44.92748" lon="5.52521">
        <ele>1567.800048828</ele>
        <time>2014-08-24T10:10:56Z</time>
      </trkpt>
      <trkpt lat="44.92766" lon="5.52529">
        <ele>1559.599975586</ele>
        <time>2014-08-24T10:11:06Z</time>
      </trkpt>
      <trkpt lat="44.92785" lon="5.52524">
        <ele>1560.199951172</ele>
        <time>2014-08-24T10:11:19Z</time>
      </trkpt>
      <trkpt lat="44.92795" lon="5.525">
        <ele>1574.199951172</ele>
        <time>2014-08-24T10:12:21Z</time>
      </trkpt>
      <trkpt lat="44.92774" lon="5.5249">
        <ele>1582.400024414</ele>
        <time>2014-08-24T10:13:04Z</time>
      </trkpt>
      <trkpt lat="44.92789" lon="5.52472">
        <ele>1592</ele>
        <time>2014-08-24T10:13:56Z</time>
      </trkpt>
      <trkpt lat="44.92808" lon="5.5245">
        <ele>1603.199951172</ele>
        <time>2014-08-24T10:14:18Z</time>
      </trkpt>
      <trkpt lat="44.9283" lon="5.52443">
        <ele>1605.400024414</ele>
        <time>2014-08-24T10:14:32Z</time>
      </trkpt>
      <trkpt lat="44.92837" lon="5.52412">
        <ele>1623.199951172</ele>
        <time>2014-08-24T10:14:44Z</time>
      </trkpt>
      <trkpt lat="44.92857" lon="5.52405">
        <ele>1628</ele>
        <time>2014-08-24T10:14:58Z</time>
      </trkpt>
      <trkpt lat="44.92882" lon="5.52404">
        <ele>1626.599975586</ele>
        <time>2014-08-24T10:15:19Z</time>
      </trkpt>
      <trkpt lat="44.92898" lon="5.52425">
        <ele>1610.599975586</ele>
        <time>2014-08-24T10:15:30Z</time>
      </trkpt>
      <trkpt lat="44.92925" lon="5.52429">
        <ele>1602</ele>
        <time>2014-08-24T10:15:45Z</time>
      </trkpt>
      <trkpt lat="44.92943" lon="5.52405">
        <ele>1607.599975586</ele>
        <time>2014-08-24T10:15:59Z</time>
      </trkpt>
      <trkpt lat="44.92959" lon="5.52381">
        <ele>1614.199951172</ele>
        <time>2014-08-24T10:16:12Z</time>
      </trkpt>
      <trkpt lat="44.92982" lon="5.52383">
        <ele>1606.599975586</ele>
        <time>2014-08-24T10:16:29Z</time>
      </trkpt>
      <trkpt lat="44.93005" lon="5.52397">
        <ele>1594</ele>
        <time>2014-08-24T10:16:48Z</time>
      </trkpt>
      <trkpt lat="44.93033" lon="5.52392">
        <ele>1589.400024414</ele>
        <time>2014-08-24T10:17:05Z</time>
      </trkpt>
      <trkpt lat="44.93055" lon="5.52379">
        <ele>1594</ele>
        <time>2014-08-24T10:17:24Z</time>
      </trkpt>
      <trkpt lat="44.93069" lon="5.52395">
        <ele>1586.800048828</ele>
        <time>2014-08-24T10:17:34Z</time>
      </trkpt>
      <trkpt lat="44.93082" lon="5.52373">
        <ele>1599</ele>
        <time>2014-08-24T10:17:43Z</time>
      </trkpt>
      <trkpt lat="44.93095" lon="5.52395">
        <ele>1588.199951172</ele>
        <time>2014-08-24T10:17:52Z</time>
      </trkpt>
      <trkpt lat="44.9311" lon="5.52417">
        <ele>1578</ele>
        <time>2014-08-24T10:18:06Z</time>
      </trkpt>
      <trkpt lat="44.9313" lon="5.52437">
        <ele>1569</ele>
        <time>2014-08-24T10:18:18Z</time>
      </trkpt>
      <trkpt lat="44.9315" lon="5.52436">
        <ele>1570.800048828</ele>
        <time>2014-08-24T10:18:29Z</time>
      </trkpt>
      <trkpt lat="44.93167" lon="5.5242">
        <ele>1581.400024414</ele>
        <time>2014-08-24T10:18:39Z</time>
      </trkpt>
      <trkpt lat="44.93186" lon="5.52407">
        <ele>1595</ele>
        <time>2014-08-24T10:18:52Z</time>
      </trkpt>
      <trkpt lat="44.93202" lon="5.52427">
        <ele>1584.800048828</ele>
        <time>2014-08-24T10:19:09Z</time>
      </trkpt>
      <trkpt lat="44.93201" lon="5.52456">
        <ele>1565.199951172</ele>
        <time>2014-08-24T10:19:19Z</time>
      </trkpt>
      <trkpt lat="44.93215" lon="5.52472">
        <ele>1556.800048828</ele>
        <time>2014-08-24T10:19:28Z</time>
      </trkpt>
      <trkpt lat="44.9323" lon="5.52457">
        <ele>1565.800048828</ele>
        <time>2014-08-24T10:20:10Z</time>
      </trkpt>
      <trkpt lat="44.93245" lon="5.52441">
        <ele>1576.400024414</ele>
        <time>2014-08-24T10:20:27Z</time>
      </trkpt>
      <trkpt lat="44.93258" lon="5.52421">
        <ele>1588.400024414</ele>
        <time>2014-08-24T10:20:46Z</time>
      </trkpt>
      <trkpt lat="44.93283" lon="5.52428">
        <ele>1582</ele>
        <time>2014-08-24T10:20:54Z</time>
      </trkpt>
      <trkpt lat="44.933" lon="5.52437">
        <ele>1574.400024414</ele>
        <time>2014-08-24T10:21:01Z</time>
      </trkpt>
      <trkpt lat="44.93306" lon="5.52463">
        <ele>1558.800048828</ele>
        <time>2014-08-24T10:21:23Z</time>
      </trkpt>
      <trkpt lat="44.9329" lon="5.52485">
        <ele>1550.199951172</ele>
        <time>2014-08-24T10:21:54Z</time>
      </trkpt>
      <trkpt lat="44.93302" lon="5.52509">
        <ele>1539.199951172</ele>
        <time>2014-08-24T10:22:03Z</time>
      </trkpt>
      <trkpt lat="44.93324" lon="5.52508">
        <ele>1538.400024414</ele>
        <time>2014-08-24T10:22:11Z</time>
      </trkpt>
      <trkpt lat="44.93339" lon="5.52462">
        <ele>1555</ele>
        <time>2014-08-24T10:22:19Z</time>
      </trkpt>
      <trkpt lat="44.93358" lon="5.52457">
        <ele>1556.199951172</ele>
        <time>2014-08-24T10:22:32Z</time>
      </trkpt>
      <trkpt lat="44.9338" lon="5.52457">
        <ele>1548.400024414</ele>
        <time>2014-08-24T10:22:41Z</time>
      </trkpt>
      <trkpt lat="44.93401" lon="5.52453">
        <ele>1544.400024414</ele>
        <time>2014-08-24T10:22:56Z</time>
      </trkpt>
      <trkpt lat="44.93418" lon="5.52447">
        <ele>1541.400024414</ele>
        <time>2014-08-24T10:23:06Z</time>
      </trkpt>
      <trkpt lat="44.93438" lon="5.52431">
        <ele>1543.400024414</ele>
        <time>2014-08-24T10:23:19Z</time>
      </trkpt>
      <trkpt lat="44.9346" lon="5.52427">
        <ele>1545.199951172</ele>
        <time>2014-08-24T10:23:32Z</time>
      </trkpt>
      <trkpt lat="44.93475" lon="5.52447">
        <ele>1536.400024414</ele>
        <time>2014-08-24T10:23:41Z</time>
      </trkpt>
      <trkpt lat="44.93494" lon="5.52449">
        <ele>1534.199951172</ele>
        <time>2014-08-24T10:23:50Z</time>
      </trkpt>
      <trkpt lat="44.93521" lon="5.52437">
        <ele>1535.599975586</ele>
        <time>2014-08-24T10:24:01Z</time>
      </trkpt>
      <trkpt lat="44.93543" lon="5.52427">
        <ele>1533.800048828</ele>
        <time>2014-08-24T10:24:10Z</time>
      </trkpt>
      <trkpt lat="44.93562" lon="5.52418">
        <ele>1533.199951172</ele>
        <time>2014-08-24T10:24:20Z</time>
      </trkpt>
      <trkpt lat="44.93578" lon="5.52406">
        <ele>1535.800048828</ele>
        <time>2014-08-24T10:24:33Z</time>
      </trkpt>
      <trkpt lat="44.93596" lon="5.52413">
        <ele>1533</ele>
        <time>2014-08-24T10:24:43Z</time>
      </trkpt>
      <trkpt lat="44.93615" lon="5.52399">
        <ele>1537.599975586</ele>
        <time>2014-08-24T10:24:58Z</time>
      </trkpt>
      <trkpt lat="44.93635" lon="5.52404">
        <ele>1537.800048828</ele>
        <time>2014-08-24T10:25:18Z</time>
      </trkpt>
      <trkpt lat="44.93658" lon="5.52409">
        <ele>1541.599975586</ele>
        <time>2014-08-24T10:25:39Z</time>
      </trkpt>
      <trkpt lat="44.93675" lon="5.52429">
        <ele>1537.800048828</ele>
        <time>2014-08-24T10:25:57Z</time>
      </trkpt>
      <trkpt lat="44.93696" lon="5.5244">
        <ele>1539</ele>
        <time>2014-08-24T10:26:07Z</time>
      </trkpt>
      <trkpt lat="44.93719" lon="5.52462">
        <ele>1535.800048828</ele>
        <time>2014-08-24T10:26:19Z</time>
      </trkpt>
      <trkpt lat="44.93747" lon="5.52466">
        <ele>1541.599975586</ele>
        <time>2014-08-24T10:26:33Z</time>
      </trkpt>
      <trkpt lat="44.93767" lon="5.52469">
        <ele>1545.400024414</ele>
        <time>2014-08-24T10:26:44Z</time>
      </trkpt>
      <trkpt lat="44.93792" lon="5.52469">
        <ele>1552.599975586</ele>
        <time>2014-08-24T10:26:54Z</time>
      </trkpt>
      <trkpt lat="44.93787" lon="5.52495">
        <ele>1541.599975586</ele>
        <time>2014-08-24T10:27:11Z</time>
      </trkpt>
      <trkpt lat="44.93796" lon="5.52526">
        <ele>1532.400024414</ele>
        <time>2014-08-24T10:27:22Z</time>
      </trkpt>
      <trkpt lat="44.93811" lon="5.52549">
        <ele>1527</ele>
        <time>2014-08-24T10:27:37Z</time>
      </trkpt>
      <trkpt lat="44.93826" lon="5.52564">
        <ele>1526.599975586</ele>
        <time>2014-08-24T10:27:52Z</time>
      </trkpt>
      <trkpt lat="44.93844" lon="5.52574">
        <ele>1527.800048828</ele>
        <time>2014-08-24T10:28:07Z</time>
      </trkpt>
      <trkpt lat="44.93862" lon="5.52567">
        <ele>1533.800048828</ele>
        <time>2014-08-24T10:28:19Z</time>
      </trkpt>
      <trkpt lat="44.9388" lon="5.52563">
        <ele>1538.400024414</ele>
        <time>2014-08-24T10:28:29Z</time>
      </trkpt>
      <trkpt lat="44.93901" lon="5.52556">
        <ele>1545.400024414</ele>
        <time>2014-08-24T10:28:41Z</time>
      </trkpt>
      <trkpt lat="44.9392" lon="5.52568">
        <ele>1545.400024414</ele>
        <time>2014-08-24T10:28:50Z</time>
      </trkpt>
      <trkpt lat="44.9394" lon="5.52582">
        <ele>1545</ele>
        <time>2014-08-24T10:29:01Z</time>
      </trkpt>
      <trkpt lat="44.93962" lon="5.52591">
        <ele>1546.800048828</ele>
        <time>2014-08-24T10:29:12Z</time>
      </trkpt>
      <trkpt lat="44.93982" lon="5.52605">
        <ele>1546.199951172</ele>
        <time>2014-08-24T10:29:29Z</time>
      </trkpt>
      <trkpt lat="44.94004" lon="5.52631">
        <ele>1541.599975586</ele>
        <time>2014-08-24T10:29:44Z</time>
      </trkpt>
      <trkpt lat="44.9403" lon="5.52645">
        <ele>1541.599975586</ele>
        <time>2014-08-24T10:29:56Z</time>
      </trkpt>
      <trkpt lat="44.94051" lon="5.52657">
        <ele>1542.400024414</ele>
        <time>2014-08-24T10:30:05Z</time>
      </trkpt>
      <trkpt lat="44.9407" lon="5.52666">
        <ele>1544.599975586</ele>
        <time>2014-08-24T10:30:17Z</time>
      </trkpt>
      <trkpt lat="44.94093" lon="5.52679">
        <ele>1546.400024414</ele>
        <time>2014-08-24T10:30:29Z</time>
      </trkpt>
      <trkpt lat="44.94118" lon="5.52707">
        <ele>1543</ele>
        <time>2014-08-24T10:30:42Z</time>
      </trkpt>
      <trkpt lat="44.94144" lon="5.52723">
        <ele>1540</ele>
        <time>2014-08-24T10:30:54Z</time>
      </trkpt>
      <trkpt lat="44.94167" lon="5.52727">
        <ele>1540</ele>
        <time>2014-08-24T10:31:04Z</time>
      </trkpt>
      <trkpt lat="44.94194" lon="5.52725">
        <ele>1542.599975586</ele>
        <time>2014-08-24T10:31:15Z</time>
      </trkpt>
      <trkpt lat="44.94219" lon="5.52724">
        <ele>1541.599975586</ele>
        <time>2014-08-24T10:31:26Z</time>
      </trkpt>
      <trkpt lat="44.94247" lon="5.52716">
        <ele>1544.400024414</ele>
        <time>2014-08-24T10:31:37Z</time>
      </trkpt>
      <trkpt lat="44.9427" lon="5.52713">
        <ele>1544</ele>
        <time>2014-08-24T10:31:47Z</time>
      </trkpt>
      <trkpt lat="44.94293" lon="5.52697">
        <ele>1549.599975586</ele>
        <time>2014-08-24T10:31:58Z</time>
      </trkpt>
      <trkpt lat="44.94311" lon="5.52686">
        <ele>1549.199951172</ele>
        <time>2014-08-24T10:32:08Z</time>
      </trkpt>
      <trkpt lat="44.94329" lon="5.52669">
        <ele>1551.199951172</ele>
        <time>2014-08-24T10:32:26Z</time>
      </trkpt>
      <trkpt lat="44.94348" lon="5.52665">
        <ele>1547.599975586</ele>
        <time>2014-08-24T10:32:50Z</time>
      </trkpt>
      <trkpt lat="44.94365" lon="5.5265">
        <ele>1550.400024414</ele>
        <time>2014-08-24T10:33:08Z</time>
      </trkpt>
      <trkpt lat="44.94384" lon="5.52642">
        <ele>1551.800048828</ele>
        <time>2014-08-24T10:33:29Z</time>
      </trkpt>
      <trkpt lat="44.94402" lon="5.5263">
        <ele>1560.400024414</ele>
        <time>2014-08-24T10:33:47Z</time>
      </trkpt>
      <trkpt lat="44.94426" lon="5.52628">
        <ele>1562.800048828</ele>
        <time>2014-08-24T10:34:12Z</time>
      </trkpt>
      <trkpt lat="44.94447" lon="5.52624">
        <ele>1566.599975586</ele>
        <time>2014-08-24T10:34:33Z</time>
      </trkpt>
      <trkpt lat="44.94464" lon="5.52636">
        <ele>1561.800048828</ele>
        <time>2014-08-24T10:34:49Z</time>
      </trkpt>
      <trkpt lat="44.94483" lon="5.52635">
        <ele>1564.400024414</ele>
        <time>2014-08-24T10:35:06Z</time>
      </trkpt>
      <trkpt lat="44.94502" lon="5.5264">
        <ele>1564.800048828</ele>
        <time>2014-08-24T10:35:26Z</time>
      </trkpt>
      <trkpt lat="44.94524" lon="5.52642">
        <ele>1566.199951172</ele>
        <time>2014-08-24T10:35:47Z</time>
      </trkpt>
      <trkpt lat="44.94542" lon="5.52647">
        <ele>1566.599975586</ele>
        <time>2014-08-24T10:36:06Z</time>
      </trkpt>
      <trkpt lat="44.94561" lon="5.52648">
        <ele>1571.800048828</ele>
        <time>2014-08-24T10:36:32Z</time>
      </trkpt>
      <trkpt lat="44.94585" lon="5.52668">
        <ele>1571.599975586</ele>
        <time>2014-08-24T10:36:57Z</time>
      </trkpt>
      <trkpt lat="44.94603" lon="5.5268">
        <ele>1572</ele>
        <time>2014-08-24T10:37:11Z</time>
      </trkpt>
      <trkpt lat="44.9462" lon="5.52696">
        <ele>1571.400024414</ele>
        <time>2014-08-24T10:37:23Z</time>
      </trkpt>
      <trkpt lat="44.94643" lon="5.52696">
        <ele>1572.599975586</ele>
        <time>2014-08-24T10:37:35Z</time>
      </trkpt>
      <trkpt lat="44.94664" lon="5.52697">
        <ele>1572.400024414</ele>
        <time>2014-08-24T10:37:44Z</time>
      </trkpt>
      <trkpt lat="44.94685" lon="5.52699">
        <ele>1572.199951172</ele>
        <time>2014-08-24T10:37:53Z</time>
      </trkpt>
      <trkpt lat="44.94706" lon="5.527">
        <ele>1572.599975586</ele>
        <time>2014-08-24T10:38:01Z</time>
      </trkpt>
      <trkpt lat="44.94727" lon="5.52701">
        <ele>1569.199951172</ele>
        <time>2014-08-24T10:38:09Z</time>
      </trkpt>
      <trkpt lat="44.94747" lon="5.52692">
        <ele>1569.199951172</ele>
        <time>2014-08-24T10:38:19Z</time>
      </trkpt>
      <trkpt lat="44.9477" lon="5.52679">
        <ele>1569.599975586</ele>
        <time>2014-08-24T10:38:29Z</time>
      </trkpt>
      <trkpt lat="44.94787" lon="5.52661">
        <ele>1571.400024414</ele>
        <time>2014-08-24T10:38:37Z</time>
      </trkpt>
      <trkpt lat="44.94785" lon="5.52692">
        <ele>1562.599975586</ele>
        <time>2014-08-24T10:39:05Z</time>
      </trkpt>
      <trkpt lat="44.94801" lon="5.52679">
        <ele>1560.400024414</ele>
        <time>2014-08-24T10:39:18Z</time>
      </trkpt>
      <trkpt lat="44.94796" lon="5.5271">
        <ele>1553.400024414</ele>
        <time>2014-08-24T10:39:31Z</time>
      </trkpt>
      <trkpt lat="44.94815" lon="5.52696">
        <ele>1548.400024414</ele>
        <time>2014-08-24T10:39:45Z</time>
      </trkpt>
      <trkpt lat="44.94812" lon="5.5273">
        <ele>1539</ele>
        <time>2014-08-24T10:40:07Z</time>
      </trkpt>
      <trkpt lat="44.94805" lon="5.52754">
        <ele>1532.599975586</ele>
        <time>2014-08-24T10:40:16Z</time>
      </trkpt>
      <trkpt lat="44.94807" lon="5.52782">
        <ele>1520</ele>
        <time>2014-08-24T10:40:38Z</time>
      </trkpt>
      <trkpt lat="44.94812" lon="5.52813">
        <ele>1505.599975586</ele>
        <time>2014-08-24T10:41:03Z</time>
      </trkpt>
      <trkpt lat="44.94829" lon="5.52824">
        <ele>1493.599975586</ele>
        <time>2014-08-24T10:41:35Z</time>
      </trkpt>
      <trkpt lat="44.94838" lon="5.52846">
        <ele>1480.800048828</ele>
        <time>2014-08-24T10:42:02Z</time>
      </trkpt>
      <trkpt lat="44.94844" lon="5.52871">
        <ele>1465.400024414</ele>
        <time>2014-08-24T10:42:21Z</time>
      </trkpt>
      <trkpt lat="44.94839" lon="5.52898">
        <ele>1453.800048828</ele>
        <time>2014-08-24T10:42:36Z</time>
      </trkpt>
      <trkpt lat="44.94855" lon="5.52922">
        <ele>1441.199951172</ele>
        <time>2014-08-24T10:42:56Z</time>
      </trkpt>
      <trkpt lat="44.94857" lon="5.52953">
        <ele>1429.400024414</ele>
        <time>2014-08-24T10:43:08Z</time>
      </trkpt>
      <trkpt lat="44.94858" lon="5.52984">
        <ele>1415.800048828</ele>
        <time>2014-08-24T10:43:23Z</time>
      </trkpt>
      <trkpt lat="44.94841" lon="5.52993">
        <ele>1415</ele>
        <time>2014-08-24T10:43:50Z</time>
      </trkpt>
      <trkpt lat="44.94858" lon="5.53024">
        <ele>1399.599975586</ele>
        <time>2014-08-24T10:44:08Z</time>
      </trkpt>
      <trkpt lat="44.94876" lon="5.53036">
        <ele>1391.599975586</ele>
        <time>2014-08-24T10:44:15Z</time>
      </trkpt>
      <trkpt lat="44.949" lon="5.53031">
        <ele>1388.800048828</ele>
        <time>2014-08-24T10:44:24Z</time>
      </trkpt>
      <trkpt lat="44.94921" lon="5.53039">
        <ele>1381.400024414</ele>
        <time>2014-08-24T10:44:33Z</time>
      </trkpt>
      <trkpt lat="44.94941" lon="5.53048">
        <ele>1373.400024414</ele>
        <time>2014-08-24T10:44:42Z</time>
      </trkpt>
      <trkpt lat="44.94952" lon="5.53074">
        <ele>1363.400024414</ele>
        <time>2014-08-24T10:44:59Z</time>
      </trkpt>
      <trkpt lat="44.94961" lon="5.53097">
        <ele>1356.199951172</ele>
        <time>2014-08-24T10:45:10Z</time>
      </trkpt>
      <trkpt lat="44.94969" lon="5.53121">
        <ele>1350</ele>
        <time>2014-08-24T10:45:20Z</time>
      </trkpt>
      <trkpt lat="44.94976" lon="5.53144">
        <ele>1344.800048828</ele>
        <time>2014-08-24T10:45:29Z</time>
      </trkpt>
      <trkpt lat="44.94985" lon="5.5317">
        <ele>1340.400024414</ele>
        <time>2014-08-24T10:45:37Z</time>
      </trkpt>
      <trkpt lat="44.94995" lon="5.53191">
        <ele>1337</ele>
        <time>2014-08-24T10:45:44Z</time>
      </trkpt>
      <trkpt lat="44.95005" lon="5.53214">
        <ele>1333.199951172</ele>
        <time>2014-08-24T10:45:51Z</time>
      </trkpt>
      <trkpt lat="44.95013" lon="5.53243">
        <ele>1327.199951172</ele>
        <time>2014-08-24T10:46:01Z</time>
      </trkpt>
      <trkpt lat="44.9501" lon="5.53276">
        <ele>1319.199951172</ele>
        <time>2014-08-24T10:46:12Z</time>
      </trkpt>
      <trkpt lat="44.95006" lon="5.53304">
        <ele>1312.800048828</ele>
        <time>2014-08-24T10:46:22Z</time>
      </trkpt>
      <trkpt lat="44.95008" lon="5.53343">
        <ele>1306.400024414</ele>
        <time>2014-08-24T10:46:35Z</time>
      </trkpt>
      <trkpt lat="44.95007" lon="5.53377">
        <ele>1298.599975586</ele>
        <time>2014-08-24T10:46:46Z</time>
      </trkpt>
      <trkpt lat="44.95001" lon="5.53402">
        <ele>1292.599975586</ele>
        <time>2014-08-24T10:46:54Z</time>
      </trkpt>
      <trkpt lat="44.94993" lon="5.5343">
        <ele>1285.599975586</ele>
        <time>2014-08-24T10:47:05Z</time>
      </trkpt>
      <trkpt lat="44.94993" lon="5.53469">
        <ele>1276.199951172</ele>
        <time>2014-08-24T10:47:18Z</time>
      </trkpt>
      <trkpt lat="44.94984" lon="5.53491">
        <ele>1271.400024414</ele>
        <time>2014-08-24T10:47:40Z</time>
      </trkpt>
      <trkpt lat="44.94982" lon="5.5353">
        <ele>1264.599975586</ele>
        <time>2014-08-24T10:48:01Z</time>
      </trkpt>
      <trkpt lat="44.94989" lon="5.5356">
        <ele>1261.400024414</ele>
        <time>2014-08-24T10:48:09Z</time>
      </trkpt>
      <trkpt lat="44.94995" lon="5.53587">
        <ele>1260.199951172</ele>
        <time>2014-08-24T10:48:16Z</time>
      </trkpt>
      <trkpt lat="44.95003" lon="5.53624">
        <ele>1260.199951172</ele>
        <time>2014-08-24T10:48:26Z</time>
      </trkpt>
      <trkpt lat="44.95013" lon="5.53661">
        <ele>1256.400024414</ele>
        <time>2014-08-24T10:48:37Z</time>
      </trkpt>
      <trkpt lat="44.95033" lon="5.53684">
        <ele>1254.599975586</ele>
        <time>2014-08-24T10:48:46Z</time>
      </trkpt>
      <trkpt lat="44.95053" lon="5.53696">
        <ele>1250.800048828</ele>
        <time>2014-08-24T10:48:56Z</time>
      </trkpt>
      <trkpt lat="44.95073" lon="5.53701">
        <ele>1245.400024414</ele>
        <time>2014-08-24T10:49:05Z</time>
      </trkpt>
      <trkpt lat="44.95091" lon="5.53699">
        <ele>1241.599975586</ele>
        <time>2014-08-24T10:49:12Z</time>
      </trkpt>
      <trkpt lat="44.95116" lon="5.53696">
        <ele>1238.800048828</ele>
        <time>2014-08-24T10:49:23Z</time>
      </trkpt>
      <trkpt lat="44.95136" lon="5.53687">
        <ele>1239.400024414</ele>
        <time>2014-08-24T10:49:33Z</time>
      </trkpt>
      <trkpt lat="44.9516" lon="5.53679">
        <ele>1237</ele>
        <time>2014-08-24T10:49:43Z</time>
      </trkpt>
      <trkpt lat="44.95184" lon="5.53676">
        <ele>1230.599975586</ele>
        <time>2014-08-24T10:49:53Z</time>
      </trkpt>
      <trkpt lat="44.95208" lon="5.5369">
        <ele>1218.800048828</ele>
        <time>2014-08-24T10:50:03Z</time>
      </trkpt>
      <trkpt lat="44.95222" lon="5.53725">
        <ele>1210.400024414</ele>
        <time>2014-08-24T10:50:13Z</time>
      </trkpt>
      <trkpt lat="44.95239" lon="5.5375">
        <ele>1204.199951172</ele>
        <time>2014-08-24T10:50:22Z</time>
      </trkpt>
      <trkpt lat="44.95254" lon="5.53777">
        <ele>1198.599975586</ele>
        <time>2014-08-24T10:50:32Z</time>
      </trkpt>
      <trkpt lat="44.95255" lon="5.53808">
        <ele>1194.400024414</ele>
        <time>2014-08-24T10:50:42Z</time>
      </trkpt>
      <trkpt lat="44.95252" lon="5.53837">
        <ele>1190.400024414</ele>
        <time>2014-08-24T10:50:50Z</time>
      </trkpt>
      <trkpt lat="44.95267" lon="5.53864">
        <ele>1184</ele>
        <time>2014-08-24T10:51:00Z</time>
      </trkpt>
      <trkpt lat="44.95277" lon="5.53891">
        <ele>1178.800048828</ele>
        <time>2014-08-24T10:51:11Z</time>
      </trkpt>
      <trkpt lat="44.95293" lon="5.53916">
        <ele>1171.800048828</ele>
        <time>2014-08-24T10:51:21Z</time>
      </trkpt>
      <trkpt lat="44.9531" lon="5.53936">
        <ele>1167</ele>
        <time>2014-08-24T10:51:30Z</time>
      </trkpt>
      <trkpt lat="44.95319" lon="5.53958">
        <ele>1162.800048828</ele>
        <time>2014-08-24T10:51:37Z</time>
      </trkpt>
      <trkpt lat="44.95335" lon="5.53994">
        <ele>1153.800048828</ele>
        <time>2014-08-24T10:51:50Z</time>
      </trkpt>
      <trkpt lat="44.95355" lon="5.54025">
        <ele>1144.800048828</ele>
        <time>2014-08-24T10:52:03Z</time>
      </trkpt>
      <trkpt lat="44.95367" lon="5.54056">
        <ele>1136.800048828</ele>
        <time>2014-08-24T10:52:14Z</time>
      </trkpt>
      <trkpt lat="44.95384" lon="5.54089">
        <ele>1128.800048828</ele>
        <time>2014-08-24T10:52:26Z</time>
      </trkpt>
      <trkpt lat="44.95381" lon="5.5412">
        <ele>1122.400024414</ele>
        <time>2014-08-24T10:52:34Z</time>
      </trkpt>
      <trkpt lat="44.95377" lon="5.54159">
        <ele>1114</ele>
        <time>2014-08-24T10:52:45Z</time>
      </trkpt>
      <trkpt lat="44.95372" lon="5.54189">
        <ele>1106.800048828</ele>
        <time>2014-08-24T10:52:55Z</time>
      </trkpt>
      <trkpt lat="44.95357" lon="5.54217">
        <ele>1100.800048828</ele>
        <time>2014-08-24T10:53:06Z</time>
      </trkpt>
      <trkpt lat="44.95351" lon="5.54241">
        <ele>1096.800048828</ele>
        <time>2014-08-24T10:53:14Z</time>
      </trkpt>
      <trkpt lat="44.95337" lon="5.54274">
        <ele>1091.199951172</ele>
        <time>2014-08-24T10:53:27Z</time>
      </trkpt>
      <trkpt lat="44.95318" lon="5.54306">
        <ele>1084.400024414</ele>
        <time>2014-08-24T10:53:40Z</time>
      </trkpt>
      <trkpt lat="44.95302" lon="5.5434">
        <ele>1077</ele>
        <time>2014-08-24T10:53:56Z</time>
      </trkpt>
      <trkpt lat="44.95298" lon="5.54375">
        <ele>1069.199951172</ele>
        <time>2014-08-24T10:54:11Z</time>
      </trkpt>
      <trkpt lat="44.953" lon="5.54404">
        <ele>1063.400024414</ele>
        <time>2014-08-24T10:54:22Z</time>
      </trkpt>
      <trkpt lat="44.95298" lon="5.5444">
        <ele>1056</ele>
        <time>2014-08-24T10:54:33Z</time>
      </trkpt>
      <trkpt lat="44.953" lon="5.54468">
        <ele>1050.400024414</ele>
        <time>2014-08-24T10:54:43Z</time>
      </trkpt>
      <trkpt lat="44.95298" lon="5.54504">
        <ele>1044.800048828</ele>
        <time>2014-08-24T10:54:55Z</time>
      </trkpt>
      <trkpt lat="44.95299" lon="5.54537">
        <ele>1039.599975586</ele>
        <time>2014-08-24T10:55:06Z</time>
      </trkpt>
      <trkpt lat="44.95295" lon="5.54574">
        <ele>1034.199951172</ele>
        <time>2014-08-24T10:55:17Z</time>
      </trkpt>
      <trkpt lat="44.95295" lon="5.54611">
        <ele>1029.800048828</ele>
        <time>2014-08-24T10:55:28Z</time>
      </trkpt>
      <trkpt lat="44.95302" lon="5.54637">
        <ele>1026.599975586</ele>
        <time>2014-08-24T10:55:37Z</time>
      </trkpt>
      <trkpt lat="44.95282" lon="5.54644">
        <ele>1024.199951172</ele>
        <time>2014-08-24T10:55:46Z</time>
      </trkpt>
    </trkseg>
  </trk>
</gpx>